Observation data for Sweetwater on 01/19/2019      Previous  Date  Next       Current Mesonet Observations  Soil Data  Daily Summary Page  Observations in Plain Language
KSW1 190600Z 32019G24KT 05/M01 A30 RMK A01 T00521011  RH  064%=      5-min Rain = 0
KSW1 190601Z 33018G26KT 05/M01 A30 RMK A01 T00521011  RH  064%=      5-min Rain = 0
KSW1 190602Z 33019G25KT 05/M01 A30 RMK A01 T00521011  RH  064%=      5-min Rain = 0
KSW1 190603Z 33019KT 05/M01 A30 RMK A01 T00521012  RH  063%=      5-min Rain = 0
KSW1 190604Z 33016G23KT 05/M01 A30 RMK A01 T00521012  RH  063%=      5-min Rain = 0
KSW1 190605Z 33018KT 05/M01 A30 RMK A01 T00521013  RH  063%=      5-min Rain = 0
KSW1 190606Z 33016KT 05/M01 A30 RMK A01 T00521013  RH  063%=      5-min Rain = 0
KSW1 190607Z 33022G28KT 05/M01 A30 RMK A01 T00521013  RH  063%=      5-min Rain = 0
KSW1 190608Z 32021KT 05/M01 A30 RMK A01 T00511014  RH  062%=      5-min Rain = 0
KSW1 190609Z 33022KT 05/M02 A30 RMK A01 T00511015  RH  062%=      5-min Rain = 0
KSW1 190610Z 32018G23KT 05/M02 A30 RMK A01 T00511015  RH  062%=      5-min Rain = 0
KSW1 190611Z 32020G25KT 05/M02 A30 RMK A01 T00511016  RH  062%=      5-min Rain = 0
KSW1 190612Z 32021KT 05/M02 A3001 RMK A01 T00511016  RH  062%=      5-min Rain = 0
KSW1 190613Z 32019G24KT 05/M02 A3001 RMK A01 T00501016  RH  062%=      5-min Rain = 0
KSW1 190614Z 31018G24KT 05/M02 A3001 RMK A01 T00501016  RH  062%=      5-min Rain = 0
KSW1 190615Z 31022G27KT 05/M02 A30 RMK A01 T00501016  RH  062%=      5-min Rain = 0
KSW1 190616Z 32023G28KT 05/M02 A3001 RMK A01 T00501017  RH  062%=      5-min Rain = 0
KSW1 190617Z 32024KT 05/M02 A30 RMK A01 T00501017  RH  062%=      5-min Rain = 0
KSW1 190618Z 32018KT 05/M02 A3001 RMK A01 T00501017  RH  062%=      5-min Rain = 0
KSW1 190619Z 32019G24KT 05/M02 A3001 RMK A01 T00501017  RH  062%=      5-min Rain = 0
KSW1 190620Z 32021KT 05/M02 A3001 RMK A01 T00501018  RH  062%=      5-min Rain = 0
KSW1 190621Z 32016KT 05/M02 A3001 RMK A01 T00491018  RH  062%=      5-min Rain = 0
KSW1 190622Z 33019G25KT 05/M02 A3001 RMK A01 T00491017  RH  062%=      5-min Rain = 0
KSW1 190623Z 32021G26KT 05/M02 A3001 RMK A01 T00491017  RH  062%=      5-min Rain = 0
KSW1 190624Z 32019KT 05/M02 A3001 RMK A01 T00491018  RH  062%=      5-min Rain = 0
KSW1 190625Z 32020G25KT 05/M02 A3001 RMK A01 T00491018  RH  062%=      5-min Rain = 0
KSW1 190626Z 33020KT 05/M02 A3001 RMK A01 T00491017  RH  062%=      5-min Rain = 0
KSW1 190627Z 32018KT 05/M02 A3001 RMK A01 T00491017  RH  062%=      5-min Rain = 0
KSW1 190628Z 33019G25KT 05/M02 A3001 RMK A01 T00491018  RH  062%=      5-min Rain = 0
KSW1 190629Z 33020KT 05/M02 A3002 RMK A01 T00491018  RH  062%=      5-min Rain = 0
KSW1 190630Z 33020G26KT 05/M02 A3002 RMK A01 T00491017  RH  062%=      5-min Rain = 0
KSW1 190631Z 33020KT 05/M02 A3002 RMK A01 T00491017  RH  062%=      5-min Rain = 0
KSW1 190632Z 33017G22KT 05/M02 A3002 RMK A01 T00481018  RH  062%=      5-min Rain = 0
KSW1 190633Z 32019G24KT 05/M02 A3002 RMK A01 T00481018  RH  062%=      5-min Rain = 0
KSW1 190634Z 32022G27KT 05/M02 A3002 RMK A01 T00481018  RH  062%=      5-min Rain = 0
KSW1 190635Z 32022KT 05/M02 A3001 RMK A01 T00481018  RH  062%=      5-min Rain = 0
KSW1 190636Z 33018G24KT 05/M02 A3002 RMK A01 T00481018  RH  062%=      5-min Rain = 0
KSW1 190637Z 33020G26KT 05/M02 A3002 RMK A01 T00481017  RH  063%=      5-min Rain = 0
KSW1 190638Z 33021G27KT 05/M02 A3002 RMK A01 T00471019  RH  062%=      5-min Rain = 0
KSW1 190639Z 32023G28KT 05/M02 A3002 RMK A01 T00471019  RH  062%=      5-min Rain = 0
KSW1 190640Z 32023G30KT 05/M02 A3002 RMK A01 T00471020  RH  062%=      5-min Rain = 0
KSW1 190641Z 32021G27KT 05/M02 A3002 RMK A01 T00471019  RH  062%=      5-min Rain = 0
KSW1 190642Z 32022KT 05/M02 A3002 RMK A01 T00471019  RH  062%=      5-min Rain = 0
KSW1 190643Z 33025G33KT 05/M02 A3001 RMK A01 T00461020  RH  062%=      5-min Rain = 0
KSW1 190644Z 33022KT 05/M02 A3002 RMK A01 T00461020  RH  062%=      5-min Rain = 0
KSW1 190645Z 32024G29KT 05/M02 A3001 RMK A01 T00461020  RH  063%=      5-min Rain = 0
KSW1 190646Z 32022KT 05/M02 A3002 RMK A01 T00461020  RH  062%=      5-min Rain = 0
KSW1 190647Z 32023KT 05/M02 A3001 RMK A01 T00451020  RH  062%=      5-min Rain = 0
KSW1 190648Z 32020G25KT 05/M02 A3002 RMK A01 T00451020  RH  063%=      5-min Rain = 0
KSW1 190649Z 33019G24KT 05/M02 A3002 RMK A01 T00451019  RH  063%=      5-min Rain = 0
KSW1 190650Z 32020G27KT 05/M02 A3002 RMK A01 T00451019  RH  063%=      5-min Rain = 0
KSW1 190651Z 32019KT 05/M02 A3002 RMK A01 T00451019  RH  063%=      5-min Rain = 0
KSW1 190652Z 33021G27KT 05/M02 A3002 RMK A01 T00451019  RH  063%=      5-min Rain = 0
KSW1 190653Z 32026KT 05/M02 A3002 RMK A01 T00451021  RH  062%=      5-min Rain = 0
KSW1 190654Z 32025G30KT 05/M02 A3002 RMK A01 T00451021  RH  062%=      5-min Rain = 0
KSW1 190655Z 33024KT 04/M02 A3002 RMK A01 T00441021  RH  062%=      5-min Rain = 0
KSW1 190656Z 32023KT 04/M02 A3002 RMK A01 T00441021  RH  063%=      5-min Rain = 0
KSW1 190657Z 32020KT 04/M02 A3002 RMK A01 T00441021  RH  063%=      5-min Rain = 0
KSW1 190658Z 32023G29KT 04/M02 A3002 RMK A01 T00441021  RH  063%=      5-min Rain = 0
KSW1 190659Z 32022KT 04/M02 A3002 RMK A01 T00441020  RH  063%=      5-min Rain = 0
KSW1 190700Z 32022KT 04/M02 A3002 RMK A01 T00441020  RH  063%=      5-min Rain = 0
KSW1 190701Z 33019KT 04/M02 A3003 RMK A01 T00441020  RH  063%=      5-min Rain = 0
KSW1 190702Z 33019KT 04/M02 A3003 RMK A01 T00431020  RH  064%=      5-min Rain = 0
KSW1 190703Z 33018G27KT 04/M02 A3003 RMK A01 T00431021  RH  063%=      5-min Rain = 0
KSW1 190704Z 32018KT 04/M02 A3003 RMK A01 T00431021  RH  063%=      5-min Rain = 0
KSW1 190705Z 32018G24KT 04/M02 A3003 RMK A01 T00431021  RH  063%=      5-min Rain = 0
KSW1 190706Z 32016G22KT 04/M02 A3003 RMK A01 T00431020  RH  064%=      5-min Rain = 0
KSW1 190707Z 32018G25KT 04/M02 A3003 RMK A01 T00431020  RH  063%=      5-min Rain = 0
KSW1 190708Z 32015KT 04/M02 A3003 RMK A01 T00431020  RH  064%=      5-min Rain = 0
KSW1 190709Z 32017G23KT 04/M02 A3003 RMK A01 T00431019  RH  064%=      5-min Rain = 0
KSW1 190710Z 32020G26KT 04/M02 A3003 RMK A01 T00431020  RH  064%=      5-min Rain = 0
KSW1 190711Z 32023G29KT 04/M02 A3003 RMK A01 T00431022  RH  063%=      5-min Rain = 0
KSW1 190712Z 32026KT 04/M02 A3002 RMK A01 T00431022  RH  063%=      5-min Rain = 0
KSW1 190713Z 32021G26KT 04/M02 A3003 RMK A01 T00431022  RH  063%=      5-min Rain = 0
KSW1 190714Z 33019G27KT 04/M02 A3003 RMK A01 T00421022  RH  063%=      5-min Rain = 0
KSW1 190715Z 32025G31KT 04/M02 A3003 RMK A01 T00421022  RH  063%=      5-min Rain = 0
KSW1 190716Z 32024G29KT 04/M02 A3003 RMK A01 T00421022  RH  063%=      5-min Rain = 0
KSW1 190717Z 32023G30KT 04/M02 A3003 RMK A01 T00421022  RH  063%=      5-min Rain = 0
KSW1 190718Z 33021G27KT 04/M02 A3003 RMK A01 T00421022  RH  063%=      5-min Rain = 0
KSW1 190719Z 33021G26KT 04/M02 A3003 RMK A01 T00421022  RH  063%=      5-min Rain = 0
KSW1 190720Z 32020KT 04/M02 A3003 RMK A01 T00421022  RH  063%=      5-min Rain = 0
KSW1 190721Z 33021KT 04/M02 A3003 RMK A01 T00411022  RH  064%=      5-min Rain = 0
KSW1 190722Z 32022G28KT 04/M02 A3003 RMK A01 T00411022  RH  063%=      5-min Rain = 0
KSW1 190723Z 33026G33KT 04/M02 A3003 RMK A01 T00411022  RH  063%=      5-min Rain = 0
KSW1 190724Z 32025KT 04/M02 A3003 RMK A01 T00411023  RH  063%=      5-min Rain = 0
KSW1 190725Z 32021G26KT 04/M02 A3003 RMK A01 T00411023  RH  063%=      5-min Rain = 0
KSW1 190726Z 33021KT 04/M02 A3003 RMK A01 T00401023  RH  064%=      5-min Rain = 0
KSW1 190727Z 33022KT 04/M02 A3003 RMK A01 T00401022  RH  064%=      5-min Rain = 0
KSW1 190728Z 32022KT 04/M02 A3003 RMK A01 T00401023  RH  064%=      5-min Rain = 0
KSW1 190729Z 33021KT 04/M02 A3003 RMK A01 T00401023  RH  063%=      5-min Rain = 0
KSW1 190730Z 33020KT 04/M02 A3003 RMK A01 T00401023  RH  063%=      5-min Rain = 0
KSW1 190731Z 33023KT 04/M02 A3003 RMK A01 T00401023  RH  063%=      5-min Rain = 0
KSW1 190732Z 33021G26KT 04/M02 A3003 RMK A01 T00401024  RH  063%=      5-min Rain = 0
KSW1 190733Z 33021KT 04/M02 A3003 RMK A01 T00411022  RH  064%=      5-min Rain = 0
KSW1 190734Z 33024KT 04/M02 A3003 RMK A01 T00401024  RH  063%=      5-min Rain = 0
KSW1 190735Z 33020KT 04/M02 A3003 RMK A01 T00401024  RH  063%=      5-min Rain = 0
KSW1 190736Z 33020G26KT 04/M02 A3003 RMK A01 T00401023  RH  064%=      5-min Rain = 0
KSW1 190737Z 33020G26KT 04/M02 A3003 RMK A01 T00401023  RH  063%=      5-min Rain = 0
KSW1 190738Z 33024G29KT 04/M02 A3003 RMK A01 T00401024  RH  063%=      5-min Rain = 0
KSW1 190739Z 33023G30KT 04/M02 A3003 RMK A01 T00401024  RH  063%=      5-min Rain = 0
KSW1 190740Z 33024KT 04/M03 A3003 RMK A01 T00401025  RH  063%=      5-min Rain = 0
KSW1 190741Z 33024KT 04/M03 A3003 RMK A01 T00401025  RH  063%=      5-min Rain = 0
KSW1 190742Z 33023KT 04/M03 A3003 RMK A01 T00401025  RH  063%=      5-min Rain = 0
KSW1 190743Z 32020G27KT 04/M03 A3003 RMK A01 T00401025  RH  063%=      5-min Rain = 0
KSW1 190744Z 32019G28KT 04/M02 A3003 RMK A01 T00401024  RH  063%=      5-min Rain = 0
KSW1 190745Z 32024G29KT 04/M03 A3003 RMK A01 T00401025  RH  063%=      5-min Rain = 0
KSW1 190746Z 33020KT 04/M03 A3004 RMK A01 T00401025  RH  062%=      5-min Rain = 0
KSW1 190747Z 33018G23KT 04/M03 A3004 RMK A01 T00401025  RH  063%=      5-min Rain = 0
KSW1 190748Z 32023G28KT 04/M03 A3003 RMK A01 T00401025  RH  063%=      5-min Rain = 0
KSW1 190749Z 33023G28KT 04/M03 A3004 RMK A01 T00401025  RH  063%=      5-min Rain = 0
KSW1 190750Z 33021KT 04/M02 A3004 RMK A01 T00401024  RH  063%=      5-min Rain = 0
KSW1 190751Z 33022G27KT 04/M02 A3004 RMK A01 T00401024  RH  063%=      5-min Rain = 0
KSW1 190752Z 33022KT 04/M03 A3004 RMK A01 T00401025  RH  063%=      5-min Rain = 0
KSW1 190753Z 33022KT 04/M02 A3004 RMK A01 T00401024  RH  063%=      5-min Rain = 0
KSW1 190754Z 33023G28KT 04/M02 A3004 RMK A01 T00401024  RH  063%=      5-min Rain = 0
KSW1 190755Z 33021G29KT 04/M02 A3004 RMK A01 T00401024  RH  063%=      5-min Rain = 0
KSW1 190756Z 33018G25KT 04/M02 A3004 RMK A01 T00401024  RH  063%=      5-min Rain = 0
KSW1 190757Z 33015KT 04/M02 A3004 RMK A01 T00401023  RH  064%=      5-min Rain = 0
KSW1 190758Z 32017G22KT 04/M02 A3004 RMK A01 T00401023  RH  064%=      5-min Rain = 0
KSW1 190759Z 33015KT 04/M02 A3004 RMK A01 T00401023  RH  064%=      5-min Rain = 0
KSW1 190800Z 33017KT 04/M02 A3004 RMK A01 T00401023  RH  064%=      5-min Rain = 0
KSW1 190801Z 32017KT 04/M02 A3005 RMK A01 T00401022  RH  064%=      5-min Rain = 0
KSW1 190802Z 31022KT 04/M02 A3005 RMK A01 T00391017  RH  067%=      5-min Rain = 0
KSW1 190803Z 31020KT 04/M01 A3005 RMK A01 T00361012  RH  071%=      5-min Rain = 0
KSW1 190804Z 32018KT 03/M01 A3005 RMK A01 T00341010  RH  073%=      5-min Rain = 0
KSW1 190805Z 32018KT 03/M01 A3005 RMK A01 T00321009  RH  074%=      5-min Rain = 0
KSW1 190806Z 31017G25KT 03/M01 A3005 RMK A01 T00321009  RH  075%=      5-min Rain = 0
KSW1 190807Z 31020KT 03/M01 A3005 RMK A01 T00311008  RH  075%=      5-min Rain = 0
KSW1 190808Z 31018KT 03/M01 A3005 RMK A01 T00311008  RH  075%=      5-min Rain = 0
KSW1 190809Z 31017G26KT 03/M01 A3005 RMK A01 T00311008  RH  076%=      5-min Rain = 0
KSW1 190810Z 32017KT 03/M01 A3005 RMK A01 T00301008  RH  076%=      5-min Rain = 0
KSW1 190811Z 31020G27KT 03/M01 A3005 RMK A01 T00291007  RH  077%=      5-min Rain = 0
KSW1 190812Z 31020G28KT 03/M01 A3005 RMK A01 T00291008  RH  077%=      5-min Rain = 0
KSW1 190813Z 31017KT 03/M01 A3006 RMK A01 T00281008  RH  077%=      5-min Rain = 0
KSW1 190814Z 31017G22KT 03/M01 A3006 RMK A01 T00281007  RH  077%=      5-min Rain = 0
KSW1 190815Z 31019G25KT 03/M01 A3006 RMK A01 T00281008  RH  077%=      5-min Rain = 0
KSW1 190816Z 31019KT 03/M01 A3006 RMK A01 T00281009  RH  077%=      5-min Rain = 0
KSW1 190817Z 31018G23KT 03/M01 A3006 RMK A01 T00281009  RH  077%=      5-min Rain = 0
KSW1 190818Z 32017KT 03/M01 A3006 RMK A01 T00291009  RH  076%=      5-min Rain = 0
KSW1 190819Z 31017G23KT 03/M01 A3006 RMK A01 T00291009  RH  076%=      5-min Rain = 0
KSW1 190820Z 32019G25KT 03/M01 A3006 RMK A01 T00301010  RH  075%=      5-min Rain = 0
KSW1 190821Z 32017KT 03/M01 A3006 RMK A01 T00301011  RH  075%=      5-min Rain = 0
KSW1 190822Z 32015KT 03/M01 A3006 RMK A01 T00311011  RH  074%=      5-min Rain = 0
KSW1 190823Z 33020G28KT 03/M01 A3006 RMK A01 T00311012  RH  073%=      5-min Rain = 0
KSW1 190824Z 33020KT 03/M02 A3006 RMK A01 T00321017  RH  070%=      5-min Rain = 0
KSW1 190825Z 33020G25KT 03/M02 A3006 RMK A01 T00331019  RH  068%=      5-min Rain = 0
KSW1 190826Z 33022KT 03/M02 A3006 RMK A01 T00341020  RH  067%=      5-min Rain = 0
KSW1 190827Z 33023G29KT 03/M02 A3006 RMK A01 T00341024  RH  066%=      5-min Rain = 0
KSW1 190828Z 34022G28KT 04/M03 A3007 RMK A01 T00351025  RH  065%=      5-min Rain = 0
KSW1 190829Z 34025G33KT 03/M03 A3007 RMK A01 T00341027  RH  064%=      5-min Rain = 0
KSW1 190830Z 35019G24KT 03/M03 A3007 RMK A01 T00341027  RH  064%=      5-min Rain = 0
KSW1 190831Z 35019G26KT 03/M03 A3007 RMK A01 T00331026  RH  065%=      5-min Rain = 0
KSW1 190832Z 34025KT 03/M03 A3007 RMK A01 T00331026  RH  065%=      5-min Rain = 0
KSW1 190833Z 34024G29KT 03/M03 A3007 RMK A01 T00331026  RH  065%=      5-min Rain = 0
KSW1 190834Z 34024G32KT 03/M03 A3007 RMK A01 T00331026  RH  066%=      5-min Rain = 0
KSW1 190835Z 34025G32KT 03/M03 A3007 RMK A01 T00321025  RH  066%=      5-min Rain = 0
KSW1 190836Z 34022G28KT 03/M02 A3007 RMK A01 T00321024  RH  067%=      5-min Rain = 0
KSW1 190837Z 34020G28KT 03/M02 A3007 RMK A01 T00311023  RH  067%=      5-min Rain = 0
KSW1 190838Z 34023G28KT 03/M02 A3007 RMK A01 T00311023  RH  068%=      5-min Rain = 0
KSW1 190839Z 33021G26KT 03/M02 A3008 RMK A01 T00311022  RH  068%=      5-min Rain = 0
KSW1 190840Z 33016KT 03/M02 A3008 RMK A01 T00311020  RH  069%=      5-min Rain = 0
KSW1 190841Z 33022G31KT 03/M02 A3008 RMK A01 T00311019  RH  070%=      5-min Rain = 0
KSW1 190842Z 33023G28KT 03/M02 A3008 RMK A01 T00301018  RH  071%=      5-min Rain = 0
KSW1 190843Z 33017G24KT 03/M02 A3008 RMK A01 T00291016  RH  072%=      5-min Rain = 0
KSW1 190844Z 32016G22KT 03/M01 A3008 RMK A01 T00281013  RH  074%=      5-min Rain = 0
KSW1 190845Z 32020G25KT 03/M01 A3008 RMK A01 T00261010  RH  077%=      5-min Rain = 0
KSW1 190846Z 32016KT 03/M01 A3008 RMK A01 T00251009  RH  078%=      5-min Rain = 0
KSW1 190847Z 32016G24KT 02/M01 A3008 RMK A01 T00241009  RH  079%=      5-min Rain = 0
KSW1 190848Z 32020KT 02/M01 A3008 RMK A01 T00231008  RH  080%=      5-min Rain = 0
KSW1 190849Z 32019KT 02/M01 A3008 RMK A01 T00221007  RH  081%=      5-min Rain = 0
KSW1 190850Z 32022G27KT 02/M01 A3008 RMK A01 T00211007  RH  082%=      5-min Rain = 0
KSW1 190851Z 32021G27KT 02/M01 A3008 RMK A01 T00201007  RH  082%=      5-min Rain = 0
KSW1 190852Z 33020KT 02/M01 A3009 RMK A01 T00201007  RH  082%=      5-min Rain = 0
KSW1 190853Z 33021G26KT 02/M01 A3009 RMK A01 T00201007  RH  082%=      5-min Rain = 0
KSW1 190854Z 32021G26KT 02/M01 A3009 RMK A01 T00191008  RH  082%=      5-min Rain = 0
KSW1 190855Z 33021G27KT 02/M01 A3009 RMK A01 T00191009  RH  082%=      5-min Rain = 0
KSW1 190856Z 33020G25KT 02/M01 A3009 RMK A01 T00191009  RH  082%=      5-min Rain = 0
KSW1 190857Z 32021G29KT 02/M01 A3009 RMK A01 T00191009  RH  082%=      5-min Rain = 0
KSW1 190858Z 33019G25KT 02/M01 A3009 RMK A01 T00181010  RH  082%=      5-min Rain = 0
KSW1 190859Z 33018KT 02/M01 A3009 RMK A01 T00181009  RH  082%=      5-min Rain = 0
KSW1 190900Z 33018G24KT 02/M01 A3009 RMK A01 T00181009  RH  082%=      5-min Rain = 0
KSW1 190901Z 34024G29KT 02/M01 A3009 RMK A01 T00181010  RH  082%=      5-min Rain = 0
KSW1 190902Z 33022G29KT 02/M01 A3009 RMK A01 T00171011  RH  082%=      5-min Rain = 0
KSW1 190903Z 33023G31KT 02/M01 A3009 RMK A01 T00171011  RH  082%=      5-min Rain = 0
KSW1 190904Z 33019G25KT 02/M01 A3009 RMK A01 T00171011  RH  082%=      5-min Rain = 0
KSW1 190905Z 34025G32KT 02/M01 A3009 RMK A01 T00171010  RH  082%=      5-min Rain = 0
KSW1 190906Z 34020G26KT 02/M01 A3009 RMK A01 T00161010  RH  083%=      5-min Rain = 0
KSW1 190907Z 34022G28KT 01/M01 A3009 RMK A01 T00141010  RH  084%=      5-min Rain = 0
KSW1 190908Z 34022G27KT 01/M01 A3009 RMK A01 T00141009  RH  085%=      5-min Rain = 0
KSW1 190909Z 34022G28KT 01/M01 A3009 RMK A01 T00131010  RH  085%=      5-min Rain = 0
KSW1 190910Z 34021G27KT 01/M01 A3009 RMK A01 T00131010  RH  085%=      5-min Rain = 0
KSW1 190911Z 34018G23KT 01/M01 A3009 RMK A01 T00131010  RH  085%=      5-min Rain = 0
KSW1 190912Z 34024G31KT 01/M01 A3009 RMK A01 T00131010  RH  085%=      5-min Rain = 0
KSW1 190913Z 33022KT 01/M01 A3009 RMK A01 T00131010  RH  085%=      5-min Rain = 0
KSW1 190914Z 33019G26KT 01/M01 A3009 RMK A01 T00121011  RH  085%=      5-min Rain = 0
KSW1 190915Z 33021G26KT 01/M01 A3009 RMK A01 T00121011  RH  085%=      5-min Rain = 0
KSW1 190916Z 33019KT 01/M01 A3009 RMK A01 T00121011  RH  085%=      5-min Rain = 0
KSW1 190917Z 33020G25KT 01/M01 A3009 RMK A01 T00121011  RH  085%=      5-min Rain = 0
KSW1 190918Z 33020KT 01/M01 A3009 RMK A01 T00111011  RH  085%=      5-min Rain = 0
KSW1 190919Z 33019G24KT 01/M01 A3009 RMK A01 T00121011  RH  085%=      5-min Rain = 0
KSW1 190920Z 33018KT 01/M01 A3009 RMK A01 T00121011  RH  085%=      5-min Rain = 0
KSW1 190921Z 33014G20KT 01/M01 A301 RMK A01 T00111011  RH  085%=      5-min Rain = 0
KSW1 190922Z 33016KT 01/M01 A301 RMK A01 T00111011  RH  085%=      5-min Rain = 0
KSW1 190923Z 33017KT 01/M01 A301 RMK A01 T00111010  RH  085%=      5-min Rain = 0
KSW1 190924Z 33016G21KT 01/M01 A301 RMK A01 T00121010  RH  085%=      5-min Rain = 0
KSW1 190925Z 33016KT 01/M01 A301 RMK A01 T00121010  RH  085%=      5-min Rain = 0
KSW1 190926Z 33015KT 01/M01 A301 RMK A01 T00131010  RH  085%=      5-min Rain = 0
KSW1 190927Z 33013KT 01/M01 A301 RMK A01 T00131010  RH  085%=      5-min Rain = 0
KSW1 190928Z 33015KT 01/M01 A301 RMK A01 T00131011  RH  085%=      5-min Rain = 0
KSW1 190929Z 33018KT 01/M01 A301 RMK A01 T00131011  RH  084%=      5-min Rain = 0
KSW1 190930Z 33018G24KT 01/M01 A301 RMK A01 T00141012  RH  083%=      5-min Rain = 0
KSW1 190931Z 33018KT 01/M01 A301 RMK A01 T00141012  RH  083%=      5-min Rain = 0
KSW1 190932Z 32017KT 01/M01 A301 RMK A01 T00141012  RH  082%=      5-min Rain = 0
KSW1 190933Z 33017G22KT 02/M01 A301 RMK A01 T00151013  RH  082%=      5-min Rain = 0
KSW1 190934Z 32016KT 02/M01 A301 RMK A01 T00151013  RH  082%=      5-min Rain = 0
KSW1 190935Z 33016KT 02/M01 A301 RMK A01 T00151013  RH  082%=      5-min Rain = 0
KSW1 190936Z 32017KT 02/M01 A301 RMK A01 T00151013  RH  081%=      5-min Rain = 0
KSW1 190937Z 33015G20KT 02/M01 A301 RMK A01 T00161013  RH  081%=      5-min Rain = 0
KSW1 190938Z 33018KT 02/M01 A301 RMK A01 T00161013  RH  081%=      5-min Rain = 0
KSW1 190939Z 32014KT 02/M01 A301 RMK A01 T00161013  RH  081%=      5-min Rain = 0
KSW1 190940Z 32014KT 02/M01 A301 RMK A01 T00161013  RH  081%=      5-min Rain = 0
KSW1 190941Z 32016KT 02/M01 A301 RMK A01 T00161013  RH  081%=      5-min Rain = 0
KSW1 190942Z 33016KT 02/M01 A301 RMK A01 T00161013  RH  081%=      5-min Rain = 0
KSW1 190943Z 32013KT 02/M01 A301 RMK A01 T00161013  RH  081%=      5-min Rain = 0
KSW1 190944Z 33014KT 02/M01 A301 RMK A01 T00161013  RH  081%=      5-min Rain = 0
KSW1 190945Z 33015KT 02/M01 A301 RMK A01 T00161013  RH  081%=      5-min Rain = 0
KSW1 190946Z 32013KT 02/M01 A3011 RMK A01 T00161013  RH  081%=      5-min Rain = 0
KSW1 190947Z 32015G23KT 02/M01 A3011 RMK A01 T00161012  RH  082%=      5-min Rain = 0
KSW1 190948Z 32017G22KT 02/M01 A301 RMK A01 T00161013  RH  081%=      5-min Rain = 0
KSW1 190949Z 32020KT 02/M01 A301 RMK A01 T00161013  RH  081%=      5-min Rain = 0
KSW1 190950Z 32015KT 02/M01 A3011 RMK A01 T00171012  RH  081%=      5-min Rain = 0
KSW1 190951Z 32017KT 02/M01 A3011 RMK A01 T00171012  RH  081%=      5-min Rain = 0
KSW1 190952Z 32015KT 02/M01 A3011 RMK A01 T00171012  RH  081%=      5-min Rain = 0
KSW1 190953Z 32016KT 02/M01 A3011 RMK A01 T00171013  RH  081%=      5-min Rain = 0
KSW1 190954Z 32014KT 02/M01 A3011 RMK A01 T00171012  RH  081%=      5-min Rain = 0
KSW1 190955Z 32016KT 02/M01 A3011 RMK A01 T00171012  RH  081%=      5-min Rain = 0
KSW1 190956Z 32015KT 02/M01 A3011 RMK A01 T00171012  RH  081%=      5-min Rain = 0
KSW1 190957Z 32015KT 02/M01 A3011 RMK A01 T00171012  RH  081%=      5-min Rain = 0
KSW1 190958Z 32013KT 02/M01 A3011 RMK A01 T00181013  RH  080%=      5-min Rain = 0
KSW1 190959Z 32014KT 02/M01 A3011 RMK A01 T00181012  RH  081%=      5-min Rain = 0
KSW1 191000Z 32014KT 02/M01 A3011 RMK A01 T00181012  RH  080%=      5-min Rain = 0
KSW1 191001Z 32014KT 02/M01 A3011 RMK A01 T00181012  RH  080%=      5-min Rain = 0
KSW1 191002Z 32014KT 02/M01 A3011 RMK A01 T00181012  RH  080%=      5-min Rain = 0
KSW1 191003Z 32015G20KT 02/M01 A3012 RMK A01 T00181012  RH  080%=      5-min Rain = 0
KSW1 191004Z 32015G20KT 02/M01 A3012 RMK A01 T00181012  RH  080%=      5-min Rain = 0
KSW1 191005Z 32014KT 02/M01 A3011 RMK A01 T00191012  RH  080%=      5-min Rain = 0
KSW1 191006Z 32013KT 02/M01 A3011 RMK A01 T00191011  RH  080%=      5-min Rain = 0
KSW1 191007Z 32015G20KT 02/M01 A3012 RMK A01 T00201011  RH  080%=      5-min Rain = 0
KSW1 191008Z 32016KT 02/M01 A3012 RMK A01 T00201012  RH  080%=      5-min Rain = 0
KSW1 191009Z 32015KT 02/M01 A3012 RMK A01 T00201012  RH  079%=      5-min Rain = 0
KSW1 191010Z 32014KT 02/M01 A3012 RMK A01 T00211012  RH  079%=      5-min Rain = 0
KSW1 191011Z 32015KT 02/M01 A3012 RMK A01 T00211012  RH  079%=      5-min Rain = 0
KSW1 191012Z 32016KT 02/M01 A3012 RMK A01 T00211012  RH  079%=      5-min Rain = 0
KSW1 191013Z 32011KT 02/M01 A3012 RMK A01 T00211012  RH  079%=      5-min Rain = 0
KSW1 191014Z 32011KT 02/M01 A3012 RMK A01 T00211011  RH  079%=      5-min Rain = 0
KSW1 191015Z 32013KT 02/M01 A3012 RMK A01 T00211011  RH  079%=      5-min Rain = 0
KSW1 191016Z 33017KT 02/M01 A3012 RMK A01 T00211012  RH  079%=      5-min Rain = 0
KSW1 191017Z 33014KT 02/M01 A3012 RMK A01 T00211012  RH  079%=      5-min Rain = 0
KSW1 191018Z 32012KT 02/M01 A3012 RMK A01 T00221011  RH  079%=      5-min Rain = 0
KSW1 191019Z 32012KT 02/M01 A3012 RMK A01 T00211011  RH  079%=      5-min Rain = 0
KSW1 191020Z 32012KT 02/M01 A3012 RMK A01 T00221011  RH  079%=      5-min Rain = 0
KSW1 191021Z 32015KT 02/M01 A3012 RMK A01 T00221011  RH  079%=      5-min Rain = 0
KSW1 191022Z 33012KT 02/M01 A3012 RMK A01 T00221011  RH  079%=      5-min Rain = 0
KSW1 191023Z 32015KT 02/M01 A3012 RMK A01 T00221011  RH  079%=      5-min Rain = 0
KSW1 191024Z 33013KT 02/M01 A3012 RMK A01 T00221011  RH  078%=      5-min Rain = 0
KSW1 191025Z 32012KT 02/M01 A3012 RMK A01 T00221011  RH  079%=      5-min Rain = 0
KSW1 191026Z 33011KT 02/M01 A3012 RMK A01 T00221011  RH  079%=      5-min Rain = 0
KSW1 191027Z 32016KT 02/M01 A3012 RMK A01 T00231011  RH  078%=      5-min Rain = 0
KSW1 191028Z 32014KT 02/M01 A3012 RMK A01 T00231011  RH  078%=      5-min Rain = 0
KSW1 191029Z 32014KT 02/M01 A3012 RMK A01 T00231011  RH  078%=      5-min Rain = 0
KSW1 191030Z 32015KT 02/M01 A3012 RMK A01 T00231011  RH  078%=      5-min Rain = 0
KSW1 191031Z 32012KT 02/M01 A3012 RMK A01 T00231011  RH  078%=      5-min Rain = 0
KSW1 191032Z 32013KT 02/M01 A3012 RMK A01 T00231011  RH  078%=      5-min Rain = 0
KSW1 191033Z 32013KT 02/M01 A3012 RMK A01 T00231011  RH  078%=      5-min Rain = 0
KSW1 191034Z 32012KT 02/M01 A3012 RMK A01 T00231011  RH  078%=      5-min Rain = 0
KSW1 191035Z 32011KT 02/M01 A3012 RMK A01 T00231011  RH  078%=      5-min Rain = 0
KSW1 191036Z 32011G16KT 02/M01 A3012 RMK A01 T00231010  RH  078%=      5-min Rain = 0
KSW1 191037Z 32012KT 02/M01 A3012 RMK A01 T00231010  RH  078%=      5-min Rain = 0
KSW1 191038Z 32011KT 02/M01 A3012 RMK A01 T00231010  RH  078%=      5-min Rain = 0
KSW1 191039Z 32013KT 02/M01 A3012 RMK A01 T00241010  RH  078%=      5-min Rain = 0
KSW1 191040Z 31011KT 02/M01 A3013 RMK A01 T00241010  RH  078%=      5-min Rain = 0
KSW1 191041Z 32012KT 02/M01 A3013 RMK A01 T00241010  RH  078%=      5-min Rain = 0
KSW1 191042Z 32012KT 02/M01 A3013 RMK A01 T00241010  RH  078%=      5-min Rain = 0
KSW1 191043Z 32011KT 02/M01 A3013 RMK A01 T00241010  RH  078%=      5-min Rain = 0
KSW1 191044Z 32010KT 02/M01 A3013 RMK A01 T00241010  RH  078%=      5-min Rain = 0
KSW1 191045Z 31011KT 02/M01 A3013 RMK A01 T00241010  RH  078%=      5-min Rain = 0
KSW1 191046Z 32012KT 02/M01 A3013 RMK A01 T00241010  RH  078%=      5-min Rain = 0
KSW1 191047Z 31012KT 02/M01 A3013 RMK A01 T00241010  RH  078%=      5-min Rain = 0
KSW1 191048Z 31011KT 02/M01 A3013 RMK A01 T00241010  RH  078%=      5-min Rain = 0
KSW1 191049Z 31012KT 02/M01 A3013 RMK A01 T00241010  RH  079%=      5-min Rain = 0
KSW1 191050Z 31011KT 02/M01 A3013 RMK A01 T00241009  RH  079%=      5-min Rain = 0
KSW1 191051Z 31010KT 02/M01 A3013 RMK A01 T00241009  RH  079%=      5-min Rain = 0
KSW1 191052Z 31011KT 02/M01 A3013 RMK A01 T00241009  RH  079%=      5-min Rain = 0
KSW1 191053Z 31011KT 02/M01 A3013 RMK A01 T00241009  RH  079%=      5-min Rain = 0
KSW1 191054Z 31010KT 02/M01 A3013 RMK A01 T00231009  RH  079%=      5-min Rain = 0
KSW1 191055Z 31010KT 02/M01 A3013 RMK A01 T00231009  RH  079%=      5-min Rain = 0
KSW1 191056Z 31010KT 02/M01 A3013 RMK A01 T00231009  RH  079%=      5-min Rain = 0
KSW1 191057Z 31010KT 02/M01 A3013 RMK A01 T00231009  RH  079%=      5-min Rain = 0
KSW1 191058Z 30010KT 02/M01 A3013 RMK A01 T00231009  RH  079%=      5-min Rain = 0
KSW1 191059Z 30010KT 02/M01 A3013 RMK A01 T00231009  RH  079%=      5-min Rain = 0
KSW1 191100Z 31014KT 02/M01 A3013 RMK A01 T00231010  RH  079%=      5-min Rain = 0
KSW1 191101Z 31011KT 02/M01 A3013 RMK A01 T00241010  RH  079%=      5-min Rain = 0
KSW1 191102Z 31013KT 02/M01 A3013 RMK A01 T00241010  RH  079%=      5-min Rain = 0
KSW1 191103Z 31011KT 02/M01 A3013 RMK A01 T00241009  RH  078%=      5-min Rain = 0
KSW1 191104Z 31012KT 02/M01 A3013 RMK A01 T00241009  RH  078%=      5-min Rain = 0
KSW1 191105Z 31013KT 02/M01 A3013 RMK A01 T00241010  RH  078%=      5-min Rain = 0
KSW1 191106Z 31012KT 03/M01 A3013 RMK A01 T00251010  RH  078%=      5-min Rain = 0
KSW1 191107Z 31012KT 03/M01 A3014 RMK A01 T00251010  RH  078%=      5-min Rain = 0
KSW1 191108Z 30012KT 03/M01 A3014 RMK A01 T00251010  RH  078%=      5-min Rain = 0
KSW1 191109Z 31012KT 03/M01 A3014 RMK A01 T00251009  RH  078%=      5-min Rain = 0
KSW1 191110Z 31012KT 03/M01 A3014 RMK A01 T00251009  RH  078%=      5-min Rain = 0
KSW1 191111Z 30012KT 03/M01 A3014 RMK A01 T00251009  RH  078%=      5-min Rain = 0
KSW1 191112Z 31012KT 03/M01 A3014 RMK A01 T00251009  RH  078%=      5-min Rain = 0
KSW1 191113Z 31012KT 02/M01 A3014 RMK A01 T00241010  RH  078%=      5-min Rain = 0
KSW1 191114Z 31012KT 02/M01 A3014 RMK A01 T00241010  RH  078%=      5-min Rain = 0
KSW1 191115Z 31014KT 02/M01 A3013 RMK A01 T00241011  RH  078%=      5-min Rain = 0
KSW1 191116Z 31013KT 02/M01 A3013 RMK A01 T00241012  RH  077%=      5-min Rain = 0
KSW1 191117Z 31014KT 02/M01 A3014 RMK A01 T00231012  RH  077%=      5-min Rain = 0
KSW1 191118Z 31014KT 02/M01 A3014 RMK A01 T00231013  RH  077%=      5-min Rain = 0
KSW1 191119Z 31014KT 02/M01 A3014 RMK A01 T00231014  RH  077%=      5-min Rain = 0
KSW1 191120Z 32016KT 02/M02 A3014 RMK A01 T00221015  RH  076%=      5-min Rain = 0
KSW1 191121Z 32016KT 02/M02 A3014 RMK A01 T00221017  RH  075%=      5-min Rain = 0
KSW1 191122Z 31017KT 02/M02 A3014 RMK A01 T00231018  RH  075%=      5-min Rain = 0
KSW1 191123Z 32021G27KT 02/M02 A3014 RMK A01 T00221020  RH  073%=      5-min Rain = 0
KSW1 191124Z 32019G26KT 02/M02 A3014 RMK A01 T00221022  RH  072%=      5-min Rain = 0
KSW1 191125Z 32017KT 02/M02 A3014 RMK A01 T00221023  RH  072%=      5-min Rain = 0
KSW1 191126Z 32019G24KT 02/M02 A3014 RMK A01 T00221023  RH  072%=      5-min Rain = 0
KSW1 191127Z 32020KT 02/M02 A3014 RMK A01 T00221024  RH  071%=      5-min Rain = 0
KSW1 191128Z 32020G25KT 02/M03 A3014 RMK A01 T00221025  RH  071%=      5-min Rain = 0
KSW1 191129Z 33020G25KT 02/M03 A3014 RMK A01 T00221026  RH  070%=      5-min Rain = 0
KSW1 191130Z 32019KT 02/M03 A3014 RMK A01 T00221026  RH  070%=      5-min Rain = 0
KSW1 191131Z 32019G25KT 02/M03 A3014 RMK A01 T00221027  RH  070%=      5-min Rain = 0
KSW1 191132Z 33020G25KT 02/M03 A3014 RMK A01 T00221027  RH  070%=      5-min Rain = 0
KSW1 191133Z 32016KT 02/M03 A3014 RMK A01 T00221027  RH  070%=      5-min Rain = 0
KSW1 191134Z 33018KT 02/M03 A3014 RMK A01 T00211027  RH  070%=      5-min Rain = 0
KSW1 191135Z 33017KT 02/M03 A3014 RMK A01 T00211027  RH  071%=      5-min Rain = 0
KSW1 191136Z 33017KT 02/M03 A3014 RMK A01 T00201027  RH  071%=      5-min Rain = 0
KSW1 191137Z 32018G23KT 02/M03 A3014 RMK A01 T00201027  RH  071%=      5-min Rain = 0
KSW1 191138Z 33017KT 02/M03 A3015 RMK A01 T00201028  RH  071%=      5-min Rain = 0
KSW1 191139Z 32015KT 02/M03 A3015 RMK A01 T00201027  RH  071%=      5-min Rain = 0
KSW1 191140Z 32015KT 02/M03 A3015 RMK A01 T00191027  RH  072%=      5-min Rain = 0
KSW1 191141Z 32017KT 02/M03 A3015 RMK A01 T00191027  RH  072%=      5-min Rain = 0
KSW1 191142Z 33019KT 02/M03 A3015 RMK A01 T00191027  RH  072%=      5-min Rain = 0
KSW1 191143Z 33017KT 02/M03 A3015 RMK A01 T00191026  RH  072%=      5-min Rain = 0
KSW1 191144Z 33015KT 02/M03 A3015 RMK A01 T00201025  RH  072%=      5-min Rain = 0
KSW1 191145Z 32014KT 02/M03 A3015 RMK A01 T00191025  RH  073%=      5-min Rain = 0
KSW1 191146Z 33014KT 02/M02 A3016 RMK A01 T00191024  RH  073%=      5-min Rain = 0
KSW1 191147Z 33016KT 02/M02 A3016 RMK A01 T00181024  RH  074%=      5-min Rain = 0
KSW1 191148Z 33020KT 02/M02 A3015 RMK A01 T00181024  RH  074%=      5-min Rain = 0
KSW1 191149Z 33015KT 02/M02 A3016 RMK A01 T00181024  RH  074%=      5-min Rain = 0
KSW1 191150Z 33015KT 02/M03 A3016 RMK A01 T00181025  RH  073%=      5-min Rain = 0
KSW1 191151Z 33021G28KT 02/M03 A3016 RMK A01 T00181026  RH  073%=      5-min Rain = 0
KSW1 191152Z 33020KT 02/M03 A3016 RMK A01 T00181029  RH  071%=      5-min Rain = 0
KSW1 191153Z 33020KT 02/M03 A3016 RMK A01 T00181030  RH  070%=      5-min Rain = 0
KSW1 191154Z 33016KT 02/M03 A3016 RMK A01 T00191030  RH  070%=      5-min Rain = 0
KSW1 191155Z 34016G21KT 02/M03 A3016 RMK A01 T00181031  RH  070%=      5-min Rain = 0
KSW1 191156Z 34020KT 02/M03 A3016 RMK A01 T00181032  RH  069%=      5-min Rain = 0
KSW1 191157Z 33019G24KT 02/M03 A3016 RMK A01 T00181033  RH  069%=      5-min Rain = 0
KSW1 191158Z 33018KT 02/M03 A3017 RMK A01 T00181033  RH  069%=      5-min Rain = 0
KSW1 191159Z 33018G23KT 02/M03 A3017 RMK A01 T00181033  RH  069%=      5-min Rain = 0
KSW1 191200Z 33015G21KT 02/M03 A3017 RMK A01 T00171033  RH  069%=      5-min Rain = 0
KSW1 191201Z 34016KT 02/M03 A3017 RMK A01 T00161033  RH  070%=      5-min Rain = 0
KSW1 191202Z 34016G21KT 02/M03 A3017 RMK A01 T00161033  RH  070%=      5-min Rain = 0
KSW1 191203Z 33015KT 02/M03 A3017 RMK A01 T00151033  RH  070%=      5-min Rain = 0
KSW1 191204Z 33014KT 02/M03 A3017 RMK A01 T00151033  RH  070%=      5-min Rain = 0
KSW1 191205Z 33015KT 02/M03 A3017 RMK A01 T00151032  RH  071%=      5-min Rain = 0
KSW1 191206Z 33016G23KT 02/M03 A3018 RMK A01 T00151033  RH  071%=      5-min Rain = 0
KSW1 191207Z 33017G23KT 02/M03 A3018 RMK A01 T00151033  RH  070%=      5-min Rain = 0
KSW1 191208Z 34016G21KT 02/M03 A3018 RMK A01 T00151034  RH  070%=      5-min Rain = 0
KSW1 191209Z 33019G24KT 02/M04 A3018 RMK A01 T00151035  RH  070%=      5-min Rain = 0
KSW1 191210Z 34015G20KT 02/M04 A3018 RMK A01 T00151035  RH  069%=      5-min Rain = 0
KSW1 191211Z 33017G22KT 01/M04 A3018 RMK A01 T00141035  RH  070%=      5-min Rain = 0
KSW1 191212Z 33017KT 01/M04 A3018 RMK A01 T00141035  RH  069%=      5-min Rain = 0
KSW1 191213Z 33015G20KT 02/M04 A3018 RMK A01 T00151035  RH  070%=      5-min Rain = 0
KSW1 191214Z 33015KT 01/M04 A3018 RMK A01 T00141035  RH  070%=      5-min Rain = 0
KSW1 191215Z 33015KT 01/M04 A3018 RMK A01 T00141035  RH  070%=      5-min Rain = 0
KSW1 191216Z 33019KT 01/M04 A3018 RMK A01 T00141035  RH  070%=      5-min Rain = 0
KSW1 191217Z 34017KT 01/M04 A3018 RMK A01 T00141036  RH  070%=      5-min Rain = 0
KSW1 191218Z 33016KT 01/M04 A3018 RMK A01 T00141035  RH  070%=      5-min Rain = 0
KSW1 191219Z 34018KT 01/M04 A3018 RMK A01 T00131035  RH  070%=      5-min Rain = 0
KSW1 191220Z 33015KT 01/M04 A3018 RMK A01 T00131035  RH  070%=      5-min Rain = 0
KSW1 191221Z 34017G22KT 01/M03 A3018 RMK A01 T00131034  RH  071%=      5-min Rain = 0
KSW1 191222Z 34015KT 01/M04 A3018 RMK A01 T00131035  RH  070%=      5-min Rain = 0
KSW1 191223Z 33014KT 01/M04 A3018 RMK A01 T00131035  RH  071%=      5-min Rain = 0
KSW1 191224Z 33013KT 01/M04 A3018 RMK A01 T00121035  RH  071%=      5-min Rain = 0
KSW1 191225Z 34016KT 01/M04 A3018 RMK A01 T00121035  RH  071%=      5-min Rain = 0
KSW1 191226Z 34015KT 01/M04 A3019 RMK A01 T00111035  RH  071%=      5-min Rain = 0
KSW1 191227Z 34014KT 01/M04 A3019 RMK A01 T00111035  RH  071%=      5-min Rain = 0
KSW1 191228Z 34013KT 01/M03 A3019 RMK A01 T00111034  RH  072%=      5-min Rain = 0
KSW1 191229Z 34016KT 01/M03 A3019 RMK A01 T00101034  RH  072%=      5-min Rain = 0
KSW1 191230Z 34014KT 01/M03 A3019 RMK A01 T00101034  RH  072%=      5-min Rain = 0
KSW1 191231Z 34017KT 01/M03 A3019 RMK A01 T00101034  RH  073%=      5-min Rain = 0
KSW1 191232Z 34013KT 01/M03 A3019 RMK A01 T00101033  RH  073%=      5-min Rain = 0
KSW1 191233Z 34012KT 01/M03 A3019 RMK A01 T00101033  RH  073%=      5-min Rain = 0
KSW1 191234Z 34012KT 01/M03 A3019 RMK A01 T00091033  RH  074%=      5-min Rain = 0
KSW1 191235Z 34013KT 01/M03 A3019 RMK A01 T00081033  RH  074%=      5-min Rain = 0
KSW1 191236Z 34014KT 01/M03 A3019 RMK A01 T00081033  RH  074%=      5-min Rain = 0
KSW1 191237Z 34014KT 01/M03 A3019 RMK A01 T00081033  RH  074%=      5-min Rain = 0
KSW1 191238Z 34012KT 01/M03 A3019 RMK A01 T00081033  RH  074%=      5-min Rain = 0
KSW1 191239Z 34013KT 01/M03 A3019 RMK A01 T00081033  RH  074%=      5-min Rain = 0
KSW1 191240Z 34014KT 01/M03 A3019 RMK A01 T00081033  RH  074%=      5-min Rain = 0
KSW1 191241Z 34014KT 01/M03 A3019 RMK A01 T00081033  RH  074%=      5-min Rain = 0
KSW1 191242Z 34012KT 01/M03 A3019 RMK A01 T00081033  RH  074%=      5-min Rain = 0
KSW1 191243Z 34012KT 01/M03 A3019 RMK A01 T00071033  RH  075%=      5-min Rain = 0
KSW1 191244Z 34012KT 01/M03 A302 RMK A01 T00071033  RH  075%=      5-min Rain = 0
KSW1 191245Z 34012KT 01/M03 A302 RMK A01 T00061033  RH  075%=      5-min Rain = 0
KSW1 191246Z 34013KT 01/M03 A302 RMK A01 T00061032  RH  075%=      5-min Rain = 0
KSW1 191247Z 34013KT 01/M03 A302 RMK A01 T00061032  RH  075%=      5-min Rain = 0
KSW1 191248Z 34012KT 01/M03 A302 RMK A01 T00061032  RH  075%=      5-min Rain = 0
KSW1 191249Z 34013KT 01/M03 A302 RMK A01 T00061033  RH  075%=      5-min Rain = 0
KSW1 191250Z 34013KT 01/M03 A302 RMK A01 T00061033  RH  075%=      5-min Rain = 0
KSW1 191251Z 34012KT 01/M03 A302 RMK A01 T00061033  RH  075%=      5-min Rain = 0
KSW1 191252Z 34012KT 01/M03 A302 RMK A01 T00051033  RH  076%=      5-min Rain = 0
KSW1 191253Z 34012KT 01/M03 A302 RMK A01 T00051033  RH  076%=      5-min Rain = 0
KSW1 191254Z 33011KT 01/M03 A302 RMK A01 T00051033  RH  076%=      5-min Rain = 0
KSW1 191255Z 34013KT 01/M03 A302 RMK A01 T00051033  RH  076%=      5-min Rain = 0
KSW1 191256Z 34012KT 01/M03 A302 RMK A01 T00051033  RH  076%=      5-min Rain = 0
KSW1 191257Z 33013KT 01/M03 A302 RMK A01 T00051033  RH  076%=      5-min Rain = 0
KSW1 191258Z 34012G17KT 01/M03 A302 RMK A01 T00051034  RH  075%=      5-min Rain = 0
KSW1 191259Z 33014G20KT 01/M03 A302 RMK A01 T00051034  RH  075%=      5-min Rain = 0
KSW1 191300Z 34015KT 01/M04 A302 RMK A01 T00051036  RH  074%=      5-min Rain = 0
KSW1 191301Z 34015KT 01/M04 A302 RMK A01 T00051037  RH  073%=      5-min Rain = 0
KSW1 191302Z 34014KT 01/M04 A302 RMK A01 T00051037  RH  073%=      5-min Rain = 0
KSW1 191303Z 34015KT 01/M04 A302 RMK A01 T00061037  RH  073%=      5-min Rain = 0
KSW1 191304Z 34015KT 01/M04 A302 RMK A01 T00051038  RH  073%=      5-min Rain = 0
KSW1 191305Z 34015KT 01/M04 A302 RMK A01 T00051038  RH  073%=      5-min Rain = 0
KSW1 191306Z 34014G19KT 01/M04 A302 RMK A01 T00051038  RH  073%=      5-min Rain = 0
KSW1 191307Z 34014G19KT 01/M04 A302 RMK A01 T00051038  RH  073%=      5-min Rain = 0
KSW1 191308Z 34013KT 00/M04 A302 RMK A01 T00041038  RH  073%=      5-min Rain = 0
KSW1 191309Z 34014G19KT 01/M04 A302 RMK A01 T00051038  RH  073%=      5-min Rain = 0
KSW1 191310Z 34013KT 01/M04 A302 RMK A01 T00051038  RH  073%=      5-min Rain = 0
KSW1 191311Z 33013KT 00/M04 A302 RMK A01 T00041039  RH  073%=      5-min Rain = 0
KSW1 191312Z 33013G18KT 00/M04 A3021 RMK A01 T00041039  RH  073%=      5-min Rain = 0
KSW1 191313Z 33015KT 00/M04 A3021 RMK A01 T00041039  RH  073%=      5-min Rain = 0
KSW1 191314Z 33014KT 00/M04 A3021 RMK A01 T00041039  RH  073%=      5-min Rain = 0
KSW1 191315Z 33013G18KT 00/M04 A3021 RMK A01 T00041039  RH  073%=      5-min Rain = 0
KSW1 191316Z 33015KT 00/M04 A3021 RMK A01 T00041040  RH  073%=      5-min Rain = 0
KSW1 191317Z 33013KT 00/M04 A3021 RMK A01 T00041040  RH  072%=      5-min Rain = 0
KSW1 191318Z 34016KT 00/M04 A3021 RMK A01 T00041041  RH  072%=      5-min Rain = 0
KSW1 191319Z 33015G20KT 00/M04 A3021 RMK A01 T00041041  RH  072%=      5-min Rain = 0
KSW1 191320Z 34017KT 00/M04 A3021 RMK A01 T00041041  RH  072%=      5-min Rain = 0
KSW1 191321Z 34016KT 00/M04 A3021 RMK A01 T00041042  RH  071%=      5-min Rain = 0
KSW1 191322Z 33016KT 00/M04 A3021 RMK A01 T00041042  RH  071%=      5-min Rain = 0
KSW1 191323Z 33015KT 00/M04 A3021 RMK A01 T00041042  RH  071%=      5-min Rain = 0
KSW1 191324Z 33014KT 00/M04 A3021 RMK A01 T00031042  RH  071%=      5-min Rain = 0
KSW1 191325Z 34015KT 00/M04 A3021 RMK A01 T00041043  RH  071%=      5-min Rain = 0
KSW1 191326Z 34014KT 00/M04 A3021 RMK A01 T00031043  RH  071%=      5-min Rain = 0
KSW1 191327Z 34012KT 00/M04 A3021 RMK A01 T00031043  RH  071%=      5-min Rain = 0
KSW1 191328Z 34013KT 00/M04 A3021 RMK A01 T00031043  RH  071%=      5-min Rain = 0
KSW1 191329Z 34014KT 00/M04 A3021 RMK A01 T00021043  RH  072%=      5-min Rain = 0
KSW1 191330Z 33016KT 00/M04 A3021 RMK A01 T00021043  RH  071%=      5-min Rain = 0
KSW1 191331Z 33018KT 00/M04 A3021 RMK A01 T00031044  RH  071%=      5-min Rain = 0
KSW1 191332Z 34016KT 00/M04 A3022 RMK A01 T00031044  RH  071%=      5-min Rain = 0
KSW1 191333Z 34014KT 00/M04 A3022 RMK A01 T00031044  RH  071%=      5-min Rain = 0
KSW1 191334Z 34015KT 00/M04 A3022 RMK A01 T00031044  RH  071%=      5-min Rain = 0
KSW1 191335Z 33018G23KT 00/M05 A3022 RMK A01 T00031045  RH  071%=      5-min Rain = 0
KSW1 191336Z 34015KT 00/M05 A3022 RMK A01 T00031045  RH  070%=      5-min Rain = 0
KSW1 191337Z 34016KT 00/M05 A3022 RMK A01 T00031045  RH  070%=      5-min Rain = 0
KSW1 191338Z 34015G20KT 00/M05 A3022 RMK A01 T00031045  RH  070%=      5-min Rain = 0
KSW1 191339Z 34015G20KT 00/M05 A3022 RMK A01 T00031045  RH  070%=      5-min Rain = 0
KSW1 191340Z 34016G22KT 00/M05 A3022 RMK A01 T00031045  RH  070%=      5-min Rain = 0
KSW1 191341Z 34014KT 00/M05 A3022 RMK A01 T00031045  RH  070%=      5-min Rain = 0
KSW1 191342Z 34015KT 00/M05 A3022 RMK A01 T00021046  RH  070%=      5-min Rain = 0
KSW1 191343Z 35014KT 00/M05 A3022 RMK A01 T00031045  RH  070%=      5-min Rain = 0
KSW1 191344Z 35014KT 00/M05 A3023 RMK A01 T00021046  RH  070%=      5-min Rain = 0
KSW1 191345Z 34014KT 00/M05 A3022 RMK A01 T00011046  RH  070%=      5-min Rain = 0
KSW1 191346Z 34012KT 00/M05 A3023 RMK A01 T00011046  RH  071%=      5-min Rain = 0
KSW1 191347Z 34013G18KT 00/M05 A3023 RMK A01 T00011046  RH  071%=      5-min Rain = 0
KSW1 191348Z 34014KT 00/M05 A3023 RMK A01 T00011046  RH  071%=      5-min Rain = 0
KSW1 191349Z 34013KT 00/M05 A3023 RMK A01 T00011046  RH  071%=      5-min Rain = 0
KSW1 191350Z 34012KT 00/M05 A3023 RMK A01 T00011046  RH  071%=      5-min Rain = 0
KSW1 191351Z 33014KT 00/M05 A3023 RMK A01 T00011045  RH  071%=      5-min Rain = 0
KSW1 191352Z 34013KT 00/M05 A3023 RMK A01 T00011046  RH  071%=      5-min Rain = 0
KSW1 191353Z 34012KT 00/M05 A3023 RMK A01 T00011046  RH  071%=      5-min Rain = 0
KSW1 191354Z 34013KT 00/M05 A3023 RMK A01 T00011045  RH  071%=      5-min Rain = 0
KSW1 191355Z 34012KT 00/M05 A3024 RMK A01 T00011045  RH  071%=      5-min Rain = 0
KSW1 191356Z 33013KT 00/M05 A3024 RMK A01 T00011045  RH  071%=      5-min Rain = 0
KSW1 191357Z 33012G17KT 00/M05 A3024 RMK A01 T00011045  RH  071%=      5-min Rain = 0
KSW1 191358Z 33011KT 00/M05 A3024 RMK A01 T00011045  RH  071%=      5-min Rain = 0
KSW1 191359Z 34013KT 00/M05 A3024 RMK A01 T00011045  RH  071%=      5-min Rain = 0
KSW1 191400Z 34013KT 00/M05 A3024 RMK A01 T00011045  RH  071%=      5-min Rain = 0
KSW1 191401Z 33011KT 00/M05 A3024 RMK A01 T00011045  RH  071%=      5-min Rain = 0
KSW1 191402Z 33012KT 00/M05 A3024 RMK A01 T00011045  RH  071%=      5-min Rain = 0
KSW1 191403Z 34011KT 00/M05 A3024 RMK A01 T00011045  RH  071%=      5-min Rain = 0
KSW1 191404Z 34011KT 00/M05 A3024 RMK A01 T00011045  RH  071%=      5-min Rain = 0
KSW1 191405Z 33010KT 00/M05 A3024 RMK A01 T00011045  RH  071%=      5-min Rain = 0
KSW1 191406Z 33012G17KT 00/M05 A3024 RMK A01 T00011045  RH  071%=      5-min Rain = 0
KSW1 191407Z 34015KT 00/M05 A3024 RMK A01 T00011046  RH  071%=      5-min Rain = 0
KSW1 191408Z 34012KT 00/M05 A3025 RMK A01 T00021046  RH  071%=      5-min Rain = 0
KSW1 191409Z 34012KT 00/M05 A3025 RMK A01 T00021046  RH  070%=      5-min Rain = 0
KSW1 191410Z 34014G19KT 00/M05 A3025 RMK A01 T00021046  RH  070%=      5-min Rain = 0
KSW1 191411Z 34014KT 00/M05 A3024 RMK A01 T00021046  RH  070%=      5-min Rain = 0
KSW1 191412Z 34011KT 00/M05 A3025 RMK A01 T00031046  RH  070%=      5-min Rain = 0
KSW1 191413Z 34013KT 00/M05 A3024 RMK A01 T00031046  RH  070%=      5-min Rain = 0
KSW1 191414Z 34014KT 00/M05 A3025 RMK A01 T00031046  RH  070%=      5-min Rain = 0
KSW1 191415Z 34014KT 00/M05 A3024 RMK A01 T00031046  RH  069%=      5-min Rain = 0
KSW1 191416Z 34013KT 00/M05 A3025 RMK A01 T00031046  RH  069%=      5-min Rain = 0
KSW1 191417Z 34013KT 00/M05 A3025 RMK A01 T00041046  RH  069%=      5-min Rain = 0
KSW1 191418Z 34016KT 00/M05 A3025 RMK A01 T00041047  RH  069%=      5-min Rain = 0
KSW1 191419Z 34015KT 00/M05 A3025 RMK A01 T00041048  RH  068%=      5-min Rain = 0
KSW1 191420Z 34014KT 01/M05 A3025 RMK A01 T00051047  RH  068%=      5-min Rain = 0
KSW1 191421Z 34015KT 00/M05 A3025 RMK A01 T00041047  RH  068%=      5-min Rain = 0
KSW1 191422Z 34013KT 01/M05 A3025 RMK A01 T00051047  RH  068%=      5-min Rain = 0
KSW1 191423Z 34015KT 01/M05 A3025 RMK A01 T00051047  RH  068%=      5-min Rain = 0
KSW1 191424Z 34015KT 01/M05 A3025 RMK A01 T00051047  RH  068%=      5-min Rain = 0
KSW1 191425Z 34013KT 01/M05 A3025 RMK A01 T00051046  RH  068%=      5-min Rain = 0
KSW1 191426Z 34012KT 01/M05 A3025 RMK A01 T00051046  RH  068%=      5-min Rain = 0
KSW1 191427Z 34011KT 01/M05 A3025 RMK A01 T00061046  RH  068%=      5-min Rain = 0
KSW1 191428Z 34011KT 01/M05 A3025 RMK A01 T00061045  RH  069%=      5-min Rain = 0
KSW1 191429Z 34013G18KT 01/M05 A3025 RMK A01 T00061046  RH  068%=      5-min Rain = 0
KSW1 191430Z 34013KT 01/M05 A3025 RMK A01 T00061046  RH  068%=      5-min Rain = 0
KSW1 191431Z 34012KT 01/M05 A3025 RMK A01 T00061046  RH  068%=      5-min Rain = 0
KSW1 191432Z 34011KT 01/M05 A3025 RMK A01 T00071045  RH  068%=      5-min Rain = 0
KSW1 191433Z 34011KT 01/M04 A3025 RMK A01 T00071044  RH  069%=      5-min Rain = 0
KSW1 191434Z 34012KT 01/M04 A3026 RMK A01 T00071044  RH  069%=      5-min Rain = 0
KSW1 191435Z 33010KT 01/M04 A3026 RMK A01 T00081044  RH  068%=      5-min Rain = 0
KSW1 191436Z 33011KT 01/M04 A3026 RMK A01 T00081043  RH  068%=      5-min Rain = 0
KSW1 191437Z 33009KT 01/M04 A3026 RMK A01 T00081043  RH  068%=      5-min Rain = 0
KSW1 191438Z 33013KT 01/M04 A3026 RMK A01 T00091043  RH  068%=      5-min Rain = 0
KSW1 191439Z 33011KT 01/M04 A3026 RMK A01 T00091044  RH  068%=      5-min Rain = 0
KSW1 191440Z 32011KT 01/M04 A3026 RMK A01 T00091043  RH  068%=      5-min Rain = 0
KSW1 191441Z 33011KT 01/M04 A3026 RMK A01 T00101043  RH  068%=      5-min Rain = 0
KSW1 191442Z 32011KT 01/M04 A3027 RMK A01 T00101042  RH  068%=      5-min Rain = 0
KSW1 191443Z 32011KT 01/M04 A3027 RMK A01 T00101042  RH  068%=      5-min Rain = 0
KSW1 191444Z 32012KT 01/M04 A3027 RMK A01 T00111042  RH  068%=      5-min Rain = 0
KSW1 191445Z 32012KT 01/M04 A3027 RMK A01 T00111043  RH  068%=      5-min Rain = 0
KSW1 191446Z 32010KT 01/M04 A3027 RMK A01 T00111041  RH  068%=      5-min Rain = 0
KSW1 191447Z 31008KT 01/M04 A3027 RMK A01 T00121040  RH  069%=      5-min Rain = 0
KSW1 191448Z 31011KT 01/M04 A3027 RMK A01 T00121040  RH  068%=      5-min Rain = 0
KSW1 191449Z 31009KT 01/M04 A3027 RMK A01 T00121041  RH  068%=      5-min Rain = 0
KSW1 191450Z 32010KT 01/M04 A3027 RMK A01 T00131040  RH  068%=      5-min Rain = 0
KSW1 191451Z 32013KT 01/M04 A3027 RMK A01 T00131040  RH  068%=      5-min Rain = 0
KSW1 191452Z 32012KT 01/M04 A3027 RMK A01 T00131040  RH  068%=      5-min Rain = 0
KSW1 191453Z 32014KT 01/M04 A3027 RMK A01 T00131041  RH  068%=      5-min Rain = 0
KSW1 191454Z 32014KT 01/M04 A3028 RMK A01 T00131041  RH  067%=      5-min Rain = 0
KSW1 191455Z 32013KT 01/M04 A3028 RMK A01 T00131041  RH  068%=      5-min Rain = 0
KSW1 191456Z 32013KT 01/M04 A3028 RMK A01 T00141040  RH  068%=      5-min Rain = 0
KSW1 191457Z 32013KT 01/M04 A3028 RMK A01 T00141040  RH  068%=      5-min Rain = 0
KSW1 191458Z 32014KT 01/M04 A3028 RMK A01 T00141040  RH  067%=      5-min Rain = 0
KSW1 191459Z 32014KT 01/M04 A3028 RMK A01 T00141040  RH  067%=      5-min Rain = 0
KSW1 191500Z 33012KT 01/M04 A3028 RMK A01 T00141040  RH  067%=      5-min Rain = 0
KSW1 191501Z 32013G18KT 02/M04 A3028 RMK A01 T00151039  RH  067%=      5-min Rain = 0
KSW1 191502Z 32014KT 02/M04 A3028 RMK A01 T00161040  RH  067%=      5-min Rain = 0
KSW1 191503Z 31010KT 02/M04 A3028 RMK A01 T00161039  RH  067%=      5-min Rain = 0
KSW1 191504Z 32011KT 02/M04 A3028 RMK A01 T00171038  RH  067%=      5-min Rain = 0
KSW1 191505Z 32011KT 02/M04 A3028 RMK A01 T00171039  RH  066%=      5-min Rain = 0
KSW1 191506Z 33017KT 02/M04 A3028 RMK A01 T00181039  RH  066%=      5-min Rain = 0
KSW1 191507Z 32014KT 02/M04 A3028 RMK A01 T00181040  RH  066%=      5-min Rain = 0
KSW1 191508Z 32014KT 02/M04 A3028 RMK A01 T00181040  RH  066%=      5-min Rain = 0
KSW1 191509Z 32011KT 02/M04 A3028 RMK A01 T00181040  RH  066%=      5-min Rain = 0
KSW1 191510Z 32014KT 02/M04 A3028 RMK A01 T00191039  RH  065%=      5-min Rain = 0
KSW1 191511Z 31017KT 02/M04 A3028 RMK A01 T00191041  RH  065%=      5-min Rain = 0
KSW1 191512Z 33013KT 02/M04 A3029 RMK A01 T00181040  RH  065%=      5-min Rain = 0
KSW1 191513Z 32014KT 02/M04 A3029 RMK A01 T00191039  RH  066%=      5-min Rain = 0
KSW1 191514Z 32015G20KT 02/M04 A3029 RMK A01 T00191039  RH  065%=      5-min Rain = 0
KSW1 191515Z 32020KT 02/M04 A3029 RMK A01 T00201040  RH  064%=      5-min Rain = 0
KSW1 191516Z 31016G21KT 02/M04 A3028 RMK A01 T00191041  RH  064%=      5-min Rain = 0
KSW1 191517Z 32014KT 02/M04 A3029 RMK A01 T00191040  RH  065%=      5-min Rain = 0
KSW1 191518Z 32016KT 02/M04 A3029 RMK A01 T00201040  RH  065%=      5-min Rain = 0
KSW1 191519Z 32015KT 02/M04 A3029 RMK A01 T00201041  RH  064%=      5-min Rain = 0
KSW1 191520Z 33014KT 02/M04 A3029 RMK A01 T00201039  RH  065%=      5-min Rain = 0
KSW1 191521Z 32015G21KT 02/M04 A3029 RMK A01 T00221039  RH  064%=      5-min Rain = 0
KSW1 191522Z 33015KT 02/M04 A3029 RMK A01 T00221038  RH  064%=      5-min Rain = 0
KSW1 191523Z 33017KT 02/M04 A3029 RMK A01 T00231040  RH  063%=      5-min Rain = 0
KSW1 191524Z 33015KT 02/M04 A3029 RMK A01 T00231042  RH  063%=      5-min Rain = 0
KSW1 191525Z 33015G20KT 02/M04 A3029 RMK A01 T00231041  RH  063%=      5-min Rain = 0
KSW1 191526Z 33016KT 02/M04 A3029 RMK A01 T00231042  RH  062%=      5-min Rain = 0
KSW1 191527Z 33017KT 02/M04 A3029 RMK A01 T00241042  RH  062%=      5-min Rain = 0
KSW1 191528Z 33016KT 02/M04 A3029 RMK A01 T00241041  RH  062%=      5-min Rain = 0
KSW1 191529Z 33018KT 03/M04 A3029 RMK A01 T00251041  RH  062%=      5-min Rain = 0
KSW1 191530Z 33016KT 03/M04 A3029 RMK A01 T00251041  RH  061%=      5-min Rain = 0
KSW1 191531Z 32016KT 03/M04 A303 RMK A01 T00261040  RH  062%=      5-min Rain = 0
KSW1 191532Z 33016KT 03/M04 A3029 RMK A01 T00261040  RH  062%=      5-min Rain = 0
KSW1 191533Z 33017KT 03/M04 A303 RMK A01 T00271041  RH  061%=      5-min Rain = 0
KSW1 191534Z 33016KT 03/M04 A303 RMK A01 T00271040  RH  061%=      5-min Rain = 0
KSW1 191535Z 33016KT 03/M04 A303 RMK A01 T00271040  RH  061%=      5-min Rain = 0
KSW1 191536Z 32015KT 03/M04 A303 RMK A01 T00281040  RH  061%=      5-min Rain = 0
KSW1 191537Z 32018KT 03/M04 A303 RMK A01 T00281040  RH  061%=      5-min Rain = 0
KSW1 191538Z 33019KT 03/M04 A303 RMK A01 T00271042  RH  060%=      5-min Rain = 0
KSW1 191539Z 32017KT 03/M04 A303 RMK A01 T00271041  RH  061%=      5-min Rain = 0
KSW1 191540Z 33016KT 03/M04 A303 RMK A01 T00271041  RH  061%=      5-min Rain = 0
KSW1 191541Z 32017KT 03/M04 A303 RMK A01 T00281041  RH  061%=      5-min Rain = 0
KSW1 191542Z 32017KT 03/M04 A303 RMK A01 T00281041  RH  060%=      5-min Rain = 0
KSW1 191543Z 32020KT 03/M04 A303 RMK A01 T00291041  RH  060%=      5-min Rain = 0
KSW1 191544Z 33019G24KT 03/M04 A3031 RMK A01 T00291044  RH  059%=      5-min Rain = 0
KSW1 191545Z 33020KT 03/M04 A3031 RMK A01 T00291044  RH  059%=      5-min Rain = 0
KSW1 191546Z 33019KT 03/M04 A3031 RMK A01 T00291044  RH  059%=      5-min Rain = 0
KSW1 191547Z 33021KT 03/M05 A3031 RMK A01 T00281046  RH  058%=      5-min Rain = 0
KSW1 191548Z 34018G24KT 03/M05 A3031 RMK A01 T00271046  RH  059%=      5-min Rain = 0
KSW1 191549Z 33015KT 03/M04 A3031 RMK A01 T00281044  RH  059%=      5-min Rain = 0
KSW1 191550Z 33019KT 03/M04 A3031 RMK A01 T00311041  RH  059%=      5-min Rain = 0
KSW1 191551Z 32016KT 03/M04 A3031 RMK A01 T00311044  RH  058%=      5-min Rain = 0
KSW1 191552Z 33017KT 03/M04 A3031 RMK A01 T00311043  RH  058%=      5-min Rain = 0
KSW1 191553Z 33015KT 03/M04 A3031 RMK A01 T00311044  RH  058%=      5-min Rain = 0
KSW1 191554Z 32017G22KT 03/M04 A3031 RMK A01 T00321043  RH  058%=      5-min Rain = 0
KSW1 191555Z 32016G22KT 03/M04 A3031 RMK A01 T00321042  RH  058%=      5-min Rain = 0
KSW1 191556Z 31016G24KT 03/M04 A3031 RMK A01 T00331042  RH  058%=      5-min Rain = 0
KSW1 191557Z 33017G24KT 03/M04 A3031 RMK A01 T00331043  RH  058%=      5-min Rain = 0
KSW1 191558Z 33021KT 03/M04 A3031 RMK A01 T00331043  RH  057%=      5-min Rain = 0
KSW1 191559Z 33019KT 03/M04 A3031 RMK A01 T00331044  RH  057%=      5-min Rain = 0
KSW1 191600Z 33019KT 03/M05 A3031 RMK A01 T00321045  RH  057%=      5-min Rain = 0
KSW1 191601Z 34017KT 03/M04 A3031 RMK A01 T00321044  RH  058%=      5-min Rain = 0
KSW1 191602Z 33017G22KT 03/M04 A3032 RMK A01 T00331042  RH  058%=      5-min Rain = 0
KSW1 191603Z 33014G19KT 04/M04 A3032 RMK A01 T00351040  RH  058%=      5-min Rain = 0
KSW1 191604Z 32015G21KT 04/M04 A3032 RMK A01 T00371038  RH  058%=      5-min Rain = 0
KSW1 191605Z 32021KT 04/M04 A3031 RMK A01 T00381042  RH  056%=      5-min Rain = 0
KSW1 191606Z 33019G24KT 04/M05 A3032 RMK A01 T00351045  RH  056%=      5-min Rain = 0
KSW1 191607Z 34016G21KT 03/M04 A3032 RMK A01 T00341044  RH  057%=      5-min Rain = 0
KSW1 191608Z 33017KT 04/M04 A3032 RMK A01 T00351042  RH  057%=      5-min Rain = 0
KSW1 191609Z 33020G25KT 04/M04 A3032 RMK A01 T00361043  RH  056%=      5-min Rain = 0
KSW1 191610Z 34019G24KT 04/M05 A3032 RMK A01 T00361045  RH  056%=      5-min Rain = 0
KSW1 191611Z 34017G22KT 04/M05 A3032 RMK A01 T00361047  RH  055%=      5-min Rain = 0
KSW1 191612Z 33019KT 04/M05 A3032 RMK A01 T00361046  RH  055%=      5-min Rain = 0
KSW1 191613Z 35018KT 04/M05 A3032 RMK A01 T00371046  RH  055%=      5-min Rain = 0
KSW1 191614Z 34017KT 04/M05 A3032 RMK A01 T00361045  RH  055%=      5-min Rain = 0
KSW1 191615Z 34018KT 04/M04 A3032 RMK A01 T00371043  RH  056%=      5-min Rain = 0
KSW1 191616Z 33018KT 04/M04 A3032 RMK A01 T00381042  RH  056%=      5-min Rain = 0
KSW1 191617Z 33017G22KT 04/M04 A3032 RMK A01 T00381043  RH  056%=      5-min Rain = 0
KSW1 191618Z 34016G21KT 04/M04 A3032 RMK A01 T00391041  RH  056%=      5-min Rain = 0
KSW1 191619Z 33016KT 04/M04 A3032 RMK A01 T00401041  RH  055%=      5-min Rain = 0
KSW1 191620Z 33018KT 04/M04 A3032 RMK A01 T00411043  RH  054%=      5-min Rain = 0
KSW1 191621Z 33017KT 04/M04 A3032 RMK A01 T00401043  RH  054%=      5-min Rain = 0
KSW1 191622Z 33019G24KT 04/M04 A3032 RMK A01 T00401042  RH  055%=      5-min Rain = 0
KSW1 191623Z 33021G28KT 04/M04 A3032 RMK A01 T00401043  RH  055%=      5-min Rain = 0
KSW1 191624Z 33020KT 04/M04 A3032 RMK A01 T00401044  RH  054%=      5-min Rain = 0
KSW1 191625Z 33016KT 04/M04 A3032 RMK A01 T00391043  RH  055%=      5-min Rain = 0
KSW1 191626Z 33016KT 04/M04 A3032 RMK A01 T00401042  RH  055%=      5-min Rain = 0
KSW1 191627Z 33015G21KT 04/M04 A3032 RMK A01 T00411042  RH  055%=      5-min Rain = 0
KSW1 191628Z 34016G21KT 04/M04 A3032 RMK A01 T00421040  RH  055%=      5-min Rain = 0
KSW1 191629Z 34019G24KT 04/M04 A3032 RMK A01 T00441042  RH  054%=      5-min Rain = 0
KSW1 191630Z 35018G23KT 04/M04 A3032 RMK A01 T00441043  RH  053%=      5-min Rain = 0
KSW1 191631Z 34018G23KT 04/M04 A3032 RMK A01 T00431044  RH  053%=      5-min Rain = 0
KSW1 191632Z 33019G25KT 04/M04 A3032 RMK A01 T00441044  RH  053%=      5-min Rain = 0
KSW1 191633Z 33017G22KT 04/M04 A3032 RMK A01 T00441044  RH  053%=      5-min Rain = 0
KSW1 191634Z 34015KT 04/M04 A3032 RMK A01 T00431042  RH  054%=      5-min Rain = 0
KSW1 191635Z 34019G24KT 04/M04 A3032 RMK A01 T00441043  RH  053%=      5-min Rain = 0
KSW1 191636Z 34019G24KT 04/M04 A3032 RMK A01 T00441044  RH  053%=      5-min Rain = 0
KSW1 191637Z 33020KT 04/M05 A3032 RMK A01 T00431045  RH  053%=      5-min Rain = 0
KSW1 191638Z 34016G22KT 04/M05 A3033 RMK A01 T00431045  RH  053%=      5-min Rain = 0
KSW1 191639Z 34022G27KT 04/M05 A3033 RMK A01 T00441045  RH  052%=      5-min Rain = 0
KSW1 191640Z 34021KT 04/M05 A3033 RMK A01 T00431047  RH  052%=      5-min Rain = 0
KSW1 191641Z 34021KT 04/M05 A3033 RMK A01 T00421047  RH  052%=      5-min Rain = 0
KSW1 191642Z 34021G26KT 04/M05 A3033 RMK A01 T00421049  RH  052%=      5-min Rain = 0
KSW1 191643Z 34022KT 04/M05 A3033 RMK A01 T00411049  RH  052%=      5-min Rain = 0
KSW1 191644Z 34018KT 04/M05 A3033 RMK A01 T00411048  RH  052%=      5-min Rain = 0
KSW1 191645Z 34020KT 04/M05 A3033 RMK A01 T00421047  RH  053%=      5-min Rain = 0
KSW1 191646Z 34019KT 04/M05 A3033 RMK A01 T00421047  RH  052%=      5-min Rain = 0
KSW1 191647Z 34019KT 04/M05 A3033 RMK A01 T00421048  RH  052%=      5-min Rain = 0
KSW1 191648Z 35015G22KT 04/M05 A3033 RMK A01 T00431045  RH  053%=      5-min Rain = 0
KSW1 191649Z 35017G22KT 04/M05 A3033 RMK A01 T00441045  RH  052%=      5-min Rain = 0
KSW1 191650Z 34019KT 05/M05 A3033 RMK A01 T00461045  RH  052%=      5-min Rain = 0
KSW1 191651Z 34016G22KT 05/M04 A3033 RMK A01 T00461044  RH  052%=      5-min Rain = 0
KSW1 191652Z 34016KT 05/M04 A3033 RMK A01 T00461043  RH  052%=      5-min Rain = 0
KSW1 191653Z 34018KT 05/M05 A3033 RMK A01 T00471045  RH  051%=      5-min Rain = 0
KSW1 191654Z 34020KT 05/M05 A3033 RMK A01 T00481046  RH  051%=      5-min Rain = 0
KSW1 191655Z 34021KT 05/M05 A3032 RMK A01 T00461048  RH  050%=      5-min Rain = 0
KSW1 191656Z 34020KT 04/M05 A3032 RMK A01 T00441046  RH  052%=      5-min Rain = 0
KSW1 191657Z 34021G26KT 05/M05 A3033 RMK A01 T00451047  RH  051%=      5-min Rain = 0
KSW1 191658Z 34019KT 05/M05 A3032 RMK A01 T00451047  RH  051%=      5-min Rain = 0
KSW1 191659Z 34021KT 05/M05 A3032 RMK A01 T00451047  RH  051%=      5-min Rain = 0
KSW1 191700Z 34016G22KT 05/M05 A3032 RMK A01 T00451046  RH  051%=      5-min Rain = 0
KSW1 191701Z 34019KT 05/M04 A3033 RMK A01 T00471044  RH  052%=      5-min Rain = 0
KSW1 191702Z 35018KT 05/M05 A3033 RMK A01 T00481045  RH  051%=      5-min Rain = 0
KSW1 191703Z 34017KT 05/M05 A3033 RMK A01 T00481047  RH  050%=      5-min Rain = 0
KSW1 191704Z 33017G25KT 05/M05 A3032 RMK A01 T00481045  RH  051%=      5-min Rain = 0
KSW1 191705Z 34019KT 05/M05 A3032 RMK A01 T00481046  RH  051%=      5-min Rain = 0
KSW1 191706Z 33019G24KT 05/M05 A3032 RMK A01 T00481045  RH  051%=      5-min Rain = 0
KSW1 191707Z 34021KT 05/M05 A3032 RMK A01 T00481045  RH  051%=      5-min Rain = 0
KSW1 191708Z 34017KT 05/M05 A3032 RMK A01 T00481047  RH  050%=      5-min Rain = 0
KSW1 191709Z 33016G21KT 05/M05 A3032 RMK A01 T00481045  RH  051%=      5-min Rain = 0
KSW1 191710Z 34019G24KT 05/M05 A3032 RMK A01 T00481045  RH  051%=      5-min Rain = 0
KSW1 191711Z 34018G23KT 05/M05 A3032 RMK A01 T00481047  RH  050%=      5-min Rain = 0
KSW1 191712Z 34017KT 05/M04 A3032 RMK A01 T00501043  RH  051%=      5-min Rain = 0
KSW1 191713Z 34021KT 05/M05 A3032 RMK A01 T00501045  RH  050%=      5-min Rain = 0
KSW1 191714Z 34019KT 05/M05 A3032 RMK A01 T00481047  RH  050%=      5-min Rain = 0
KSW1 191715Z 34018G23KT 05/M05 A3032 RMK A01 T00481045  RH  051%=      5-min Rain = 0
KSW1 191716Z 34017KT 05/M04 A3032 RMK A01 T00491044  RH  051%=      5-min Rain = 0
KSW1 191717Z 35018KT 05/M05 A3032 RMK A01 T00501045  RH  050%=      5-min Rain = 0
KSW1 191718Z 35017G22KT 05/M05 A3032 RMK A01 T00501046  RH  050%=      5-min Rain = 0
KSW1 191719Z 35016KT 05/M05 A3032 RMK A01 T00501045  RH  050%=      5-min Rain = 0
KSW1 191720Z 35017KT 05/M04 A3032 RMK A01 T00521043  RH  050%=      5-min Rain = 0
KSW1 191721Z 35015G21KT 05/M04 A3032 RMK A01 T00521044  RH  050%=      5-min Rain = 0
KSW1 191722Z 34017KT 05/M04 A3032 RMK A01 T00511044  RH  050%=      5-min Rain = 0
KSW1 191723Z 34016G22KT 05/M04 A3032 RMK A01 T00521043  RH  050%=      5-min Rain = 0
KSW1 191724Z 34020KT 05/M04 A3032 RMK A01 T00521044  RH  050%=      5-min Rain = 0
KSW1 191725Z 34017G22KT 05/M05 A3032 RMK A01 T00521045  RH  050%=      5-min Rain = 0
KSW1 191726Z 34019KT 05/M04 A3032 RMK A01 T00531044  RH  050%=      5-min Rain = 0
KSW1 191727Z 35020KT 05/M05 A3032 RMK A01 T00531045  RH  049%=      5-min Rain = 0
KSW1 191728Z 34019KT 05/M05 A3032 RMK A01 T00521045  RH  050%=      5-min Rain = 0
KSW1 191729Z 34019KT 05/M05 A3032 RMK A01 T00521046  RH  049%=      5-min Rain = 0
KSW1 191730Z 34015KT 05/M05 A3032 RMK A01 T00491046  RH  050%=      5-min Rain = 0
KSW1 191731Z 33015G21KT 05/M04 A3032 RMK A01 T00511042  RH  051%=      5-min Rain = 0
KSW1 191732Z 34018KT 05/M04 A3032 RMK A01 T00541042  RH  050%=      5-min Rain = 0
KSW1 191733Z 34016G25KT 05/M04 A3032 RMK A01 T00541041  RH  051%=      5-min Rain = 0
KSW1 191734Z 35019KT 06/M04 A3032 RMK A01 T00551042  RH  050%=      5-min Rain = 0
KSW1 191735Z 34015G20KT 05/M04 A3032 RMK A01 T00531044  RH  050%=      5-min Rain = 0
KSW1 191736Z 35016G21KT 05/M04 A3032 RMK A01 T00531042  RH  050%=      5-min Rain = 0
KSW1 191737Z 34015KT 05/M04 A3032 RMK A01 T00541040  RH  051%=      5-min Rain = 0
KSW1 191738Z 33014KT 06/M04 A3032 RMK A01 T00551041  RH  050%=      5-min Rain = 0
KSW1 191739Z 34013KT 05/M04 A3032 RMK A01 T00531041  RH  051%=      5-min Rain = 0
KSW1 191740Z 34017KT 06/M04 A3032 RMK A01 T00571036  RH  051%=      5-min Rain = 0
KSW1 191741Z 34015KT 06/M04 A3032 RMK A01 T00581040  RH  049%=      5-min Rain = 0
KSW1 191742Z 34016G21KT 06/M04 A3032 RMK A01 T00571040  RH  050%=      5-min Rain = 0
KSW1 191743Z 34018G25KT 06/M04 A3032 RMK A01 T00571039  RH  050%=      5-min Rain = 0
KSW1 191744Z 34021KT 06/M04 A3032 RMK A01 T00571041  RH  049%=      5-min Rain = 0
KSW1 191745Z 34019G25KT 05/M04 A3032 RMK A01 T00531044  RH  050%=      5-min Rain = 0
KSW1 191746Z 34018KT 05/M04 A3032 RMK A01 T00531041  RH  050%=      5-min Rain = 0
KSW1 191747Z 33017KT 06/M04 A3032 RMK A01 T00551040  RH  051%=      5-min Rain = 0
KSW1 191748Z 34021G27KT 06/M04 A3032 RMK A01 T00561041  RH  050%=      5-min Rain = 0
KSW1 191749Z 34022KT 06/M04 A3032 RMK A01 T00551044  RH  049%=      5-min Rain = 0
KSW1 191750Z 35018KT 05/M04 A3032 RMK A01 T00531043  RH  050%=      5-min Rain = 0
KSW1 191751Z 34016KT 05/M04 A3032 RMK A01 T00541041  RH  050%=      5-min Rain = 0
KSW1 191752Z 34017KT 05/M04 A3032 RMK A01 T00541042  RH  050%=      5-min Rain = 0
KSW1 191753Z 34014G19KT 05/M04 A3032 RMK A01 T00541041  RH  050%=      5-min Rain = 0
KSW1 191754Z 34018G23KT 06/M04 A3032 RMK A01 T00551038  RH  051%=      5-min Rain = 0
KSW1 191755Z 34016G22KT 06/M04 A3032 RMK A01 T00571040  RH  050%=      5-min Rain = 0
KSW1 191756Z 34017KT 06/M04 A3032 RMK A01 T00591038  RH  050%=      5-min Rain = 0
KSW1 191757Z 34016KT 06/M04 A3032 RMK A01 T00581041  RH  049%=      5-min Rain = 0
KSW1 191758Z 34016KT 06/M04 A3032 RMK A01 T00581038  RH  050%=      5-min Rain = 0
KSW1 191759Z 34015KT 06/M04 A3032 RMK A01 T00601037  RH  050%=      5-min Rain = 0
KSW1 191800Z 34016KT 06/M04 A3032 RMK A01 T00611040  RH  049%=      5-min Rain = 0
KSW1 191801Z 34018G23KT 06/M04 A3032 RMK A01 T00591040  RH  049%=      5-min Rain = 0
KSW1 191802Z 34017KT 06/M04 A3032 RMK A01 T00591039  RH  049%=      5-min Rain = 0
KSW1 191803Z 33019KT 06/M04 A3032 RMK A01 T00581041  RH  049%=      5-min Rain = 0
KSW1 191804Z 33015KT 06/M04 A3032 RMK A01 T00561041  RH  050%=      5-min Rain = 0
KSW1 191805Z 34016KT 06/M04 A3032 RMK A01 T00561039  RH  051%=      5-min Rain = 0
KSW1 191806Z 33014KT 06/M04 A3032 RMK A01 T00571038  RH  050%=      5-min Rain = 0
KSW1 191807Z 34016KT 06/M04 A3032 RMK A01 T00581038  RH  050%=      5-min Rain = 0
KSW1 191808Z 34015G20KT 06/M04 A3032 RMK A01 T00591037  RH  050%=      5-min Rain = 0
KSW1 191809Z 35014G19KT 06/M04 A3032 RMK A01 T00621035  RH  050%=      5-min Rain = 0
KSW1 191810Z 34016G22KT 06/M04 A3032 RMK A01 T00631035  RH  049%=      5-min Rain = 0
KSW1 191811Z 33018G23KT 06/M04 A3031 RMK A01 T00641037  RH  048%=      5-min Rain = 0
KSW1 191812Z 32016KT 06/M04 A3032 RMK A01 T00631037  RH  049%=      5-min Rain = 0
KSW1 191813Z 33017KT 06/M04 A3031 RMK A01 T00621040  RH  048%=      5-min Rain = 0
KSW1 191814Z 34015KT 06/M04 A3031 RMK A01 T00601038  RH  049%=      5-min Rain = 0
KSW1 191815Z 34014KT 06/M04 A3031 RMK A01 T00611037  RH  050%=      5-min Rain = 0
KSW1 191816Z 33014KT 06/M04 A3031 RMK A01 T00621037  RH  049%=      5-min Rain = 0
KSW1 191817Z 33015KT 06/M04 A3031 RMK A01 T00621035  RH  050%=      5-min Rain = 0
KSW1 191818Z 34018KT 07/M04 A3031 RMK A01 T00651037  RH  048%=      5-min Rain = 0
KSW1 191819Z 34015G21KT 07/M04 A3031 RMK A01 T00651037  RH  048%=      5-min Rain = 0
KSW1 191820Z 33017KT 07/M04 A3031 RMK A01 T00661037  RH  048%=      5-min Rain = 0
KSW1 191821Z 33019KT 06/M04 A3031 RMK A01 T00631039  RH  048%=      5-min Rain = 0
KSW1 191822Z 33016G21KT 06/M04 A3031 RMK A01 T00621038  RH  048%=      5-min Rain = 0
KSW1 191823Z 33020G25KT 06/M04 A3031 RMK A01 T00621038  RH  049%=      5-min Rain = 0
KSW1 191824Z 34016KT 06/M04 A3031 RMK A01 T00621038  RH  048%=      5-min Rain = 0
KSW1 191825Z 34014KT 07/M03 A3031 RMK A01 T00661034  RH  049%=      5-min Rain = 0
KSW1 191826Z 34014G20KT 07/M04 A3031 RMK A01 T00671035  RH  048%=      5-min Rain = 0
KSW1 191827Z 35015KT 07/M04 A3031 RMK A01 T00661039  RH  047%=      5-min Rain = 0
KSW1 191828Z 35014KT 06/M04 A3031 RMK A01 T00641038  RH  048%=      5-min Rain = 0
KSW1 191829Z 34010KT 07/M03 A3031 RMK A01 T00661032  RH  050%=      5-min Rain = 0
KSW1 191830Z 33014KT 07/M03 A3031 RMK A01 T00721029  RH  049%=      5-min Rain = 0
KSW1 191831Z 34017KT 07/M04 A3031 RMK A01 T00721037  RH  046%=      5-min Rain = 0
KSW1 191832Z 34016KT 07/M04 A3031 RMK A01 T00671040  RH  047%=      5-min Rain = 0
KSW1 191833Z 33015KT 07/M04 A303 RMK A01 T00651037  RH  048%=      5-min Rain = 0
KSW1 191834Z 33016KT 07/M04 A303 RMK A01 T00681035  RH  048%=      5-min Rain = 0
KSW1 191835Z 34016G23KT 07/M03 A303 RMK A01 T00701034  RH  048%=      5-min Rain = 0
KSW1 191836Z 34019KT 07/M04 A303 RMK A01 T00711037  RH  046%=      5-min Rain = 0
KSW1 191837Z 33016KT 07/M04 A303 RMK A01 T00681038  RH  047%=      5-min Rain = 0
KSW1 191838Z 35012G17KT 07/M04 A303 RMK A01 T00681036  RH  047%=      5-min Rain = 0
KSW1 191839Z 34016KT 07/M03 A303 RMK A01 T00711034  RH  047%=      5-min Rain = 0
KSW1 191840Z 33015G20KT 07/M04 A303 RMK A01 T00711036  RH  046%=      5-min Rain = 0
KSW1 191841Z 33016KT 07/M04 A303 RMK A01 T00701036  RH  047%=      5-min Rain = 0
KSW1 191842Z 33018G23KT 07/M04 A303 RMK A01 T00701037  RH  046%=      5-min Rain = 0
KSW1 191843Z 33017KT 07/M04 A303 RMK A01 T00691038  RH  046%=      5-min Rain = 0
KSW1 191844Z 34017G22KT 07/M04 A303 RMK A01 T00671039  RH  047%=      5-min Rain = 0
KSW1 191845Z 33019KT 07/M04 A303 RMK A01 T00671039  RH  047%=      5-min Rain = 0
KSW1 191846Z 33017KT 07/M04 A303 RMK A01 T00681038  RH  047%=      5-min Rain = 0
KSW1 191847Z 32016KT 07/M04 A303 RMK A01 T00691037  RH  047%=      5-min Rain = 0
KSW1 191848Z 32016KT 07/M04 A303 RMK A01 T00701036  RH  047%=      5-min Rain = 0
KSW1 191849Z 33012KT 07/M03 A303 RMK A01 T00711033  RH  048%=      5-min Rain = 0
KSW1 191850Z 34013KT 08/M03 A303 RMK A01 T00751030  RH  047%=      5-min Rain = 0
KSW1 191851Z 32017KT 08/M03 A3029 RMK A01 T00771033  RH  046%=      5-min Rain = 0
KSW1 191852Z 33014KT 07/M04 A3029 RMK A01 T00731037  RH  045%=      5-min Rain = 0
KSW1 191853Z 34016KT 07/M04 A303 RMK A01 T00721037  RH  046%=      5-min Rain = 0
KSW1 191854Z 33016KT 07/M04 A3029 RMK A01 T00711037  RH  046%=      5-min Rain = 0
KSW1 191855Z 33016KT 07/M04 A3029 RMK A01 T00721035  RH  046%=      5-min Rain = 0
KSW1 191856Z 34015KT 07/M03 A3029 RMK A01 T00731034  RH  046%=      5-min Rain = 0
KSW1 191857Z 34014KT 07/M03 A3029 RMK A01 T00731034  RH  046%=      5-min Rain = 0
KSW1 191858Z 33013KT 08/M03 A3029 RMK A01 T00751031  RH  047%=      5-min Rain = 0
KSW1 191859Z 33015G20KT 08/M03 A3029 RMK A01 T00791030  RH  046%=      5-min Rain = 0
KSW1 191900Z 33017KT 08/M04 A3029 RMK A01 T00791036  RH  044%=      5-min Rain = 0
KSW1 191901Z 33011KT 08/M03 A3029 RMK A01 T00751034  RH  046%=      5-min Rain = 0
KSW1 191902Z 33016KT 08/M03 A3029 RMK A01 T00781032  RH  046%=      5-min Rain = 0
KSW1 191903Z 34013KT 08/M03 A3029 RMK A01 T00781034  RH  045%=      5-min Rain = 0
KSW1 191904Z 32013KT 08/M03 A3029 RMK A01 T00781032  RH  045%=      5-min Rain = 0
KSW1 191905Z 33017G22KT 08/M03 A3029 RMK A01 T00801032  RH  045%=      5-min Rain = 0
KSW1 191906Z 33017KT 08/M04 A3029 RMK A01 T00791037  RH  044%=      5-min Rain = 0
KSW1 191907Z 34018KT 08/M04 A3029 RMK A01 T00791036  RH  044%=      5-min Rain = 0
KSW1 191908Z 33020G25KT 08/M04 A3029 RMK A01 T00791037  RH  043%=      5-min Rain = 0
KSW1 191909Z 33018KT 08/M04 A3029 RMK A01 T00771039  RH  044%=      5-min Rain = 0
KSW1 191910Z 33014KT 08/M04 A3029 RMK A01 T00761036  RH  045%=      5-min Rain = 0
KSW1 191911Z 33018G24KT 08/M03 A3029 RMK A01 T00811033  RH  045%=      5-min Rain = 0
KSW1 191912Z 34019KT 08/M04 A3029 RMK A01 T00801037  RH  043%=      5-min Rain = 0
KSW1 191913Z 34016KT 08/M04 A3029 RMK A01 T00781037  RH  044%=      5-min Rain = 0
KSW1 191914Z 33015KT 08/M04 A3029 RMK A01 T00791035  RH  044%=      5-min Rain = 0
KSW1 191915Z 34014G21KT 08/M03 A3029 RMK A01 T00821031  RH  045%=      5-min Rain = 0
KSW1 191916Z 34017KT 08/M04 A3029 RMK A01 T00841035  RH  043%=      5-min Rain = 0
KSW1 191917Z 34016KT 08/M04 A3029 RMK A01 T00811036  RH  043%=      5-min Rain = 0
KSW1 191918Z 34016KT 08/M04 A3029 RMK A01 T00811037  RH  043%=      5-min Rain = 0
KSW1 191919Z 34015KT 08/M04 A3028 RMK A01 T00801036  RH  044%=      5-min Rain = 0
KSW1 191920Z 33017G23KT 08/M03 A3028 RMK A01 T00801034  RH  044%=      5-min Rain = 0
KSW1 191921Z 33017KT 08/M04 A3028 RMK A01 T00811036  RH  043%=      5-min Rain = 0
KSW1 191922Z 33019KT 08/M04 A3028 RMK A01 T00791037  RH  044%=      5-min Rain = 0
KSW1 191923Z 33017KT 08/M04 A3028 RMK A01 T00781036  RH  044%=      5-min Rain = 0
KSW1 191924Z 32015KT 08/M04 A3028 RMK A01 T00781037  RH  044%=      5-min Rain = 0
KSW1 191925Z 34015KT 08/M04 A3028 RMK A01 T00781036  RH  045%=      5-min Rain = 0
KSW1 191926Z 33017KT 08/M03 A3028 RMK A01 T00811031  RH  045%=      5-min Rain = 0
KSW1 191927Z 32015KT 08/M03 A3028 RMK A01 T00831033  RH  044%=      5-min Rain = 0
KSW1 191928Z 32016KT 08/M03 A3028 RMK A01 T00831032  RH  044%=      5-min Rain = 0
KSW1 191929Z 32015KT 08/M03 A3028 RMK A01 T00841034  RH  043%=      5-min Rain = 0
KSW1 191930Z 32015KT 08/M04 A3028 RMK A01 T00811036  RH  043%=      5-min Rain = 0
KSW1 191931Z 33016G21KT 08/M04 A3028 RMK A01 T00791036  RH  044%=      5-min Rain = 0
KSW1 191932Z 32016KT 08/M04 A3028 RMK A01 T00791035  RH  044%=      5-min Rain = 0
KSW1 191933Z 31012KT 08/M04 A3028 RMK A01 T00791035  RH  044%=      5-min Rain = 0
KSW1 191934Z 32013G20KT 08/M03 A3028 RMK A01 T00821032  RH  045%=      5-min Rain = 0
KSW1 191935Z 32016KT 09/M03 A3028 RMK A01 T00851034  RH  043%=      5-min Rain = 0
KSW1 191936Z 32019G24KT 08/M04 A3028 RMK A01 T00841035  RH  043%=      5-min Rain = 0
KSW1 191937Z 32014KT 09/M03 A3028 RMK A01 T00861034  RH  043%=      5-min Rain = 0
KSW1 191938Z 32019G24KT 09/M04 A3028 RMK A01 T00871035  RH  042%=      5-min Rain = 0
KSW1 191939Z 32019KT 09/M04 A3028 RMK A01 T00861037  RH  042%=      5-min Rain = 0
KSW1 191940Z 32018KT 08/M04 A3028 RMK A01 T00841037  RH  042%=      5-min Rain = 0
KSW1 191941Z 32018KT 08/M04 A3028 RMK A01 T00831037  RH  043%=      5-min Rain = 0
KSW1 191942Z 32018KT 08/M04 A3028 RMK A01 T00821036  RH  043%=      5-min Rain = 0
KSW1 191943Z 33016G21KT 08/M04 A3028 RMK A01 T00811038  RH  043%=      5-min Rain = 0
KSW1 191944Z 33015KT 08/M04 A3027 RMK A01 T00811036  RH  044%=      5-min Rain = 0
KSW1 191945Z 32017KT 08/M04 A3027 RMK A01 T00831035  RH  043%=      5-min Rain = 0
KSW1 191946Z 32017KT 08/M04 A3027 RMK A01 T00831036  RH  043%=      5-min Rain = 0
KSW1 191947Z 32013G18KT 08/M03 A3027 RMK A01 T00841033  RH  044%=      5-min Rain = 0
KSW1 191948Z 32016KT 09/M03 A3027 RMK A01 T00861033  RH  043%=      5-min Rain = 0
KSW1 191949Z 32017KT 09/M04 A3027 RMK A01 T00861035  RH  042%=      5-min Rain = 0
KSW1 191950Z 33018G23KT 09/M04 A3027 RMK A01 T00851036  RH  042%=      5-min Rain = 0
KSW1 191951Z 32017KT 09/M04 A3027 RMK A01 T00871035  RH  042%=      5-min Rain = 0
KSW1 191952Z 33020KT 09/M04 A3027 RMK A01 T00891036  RH  041%=      5-min Rain = 0
KSW1 191953Z 33016G21KT 09/M04 A3027 RMK A01 T00891037  RH  041%=      5-min Rain = 0
KSW1 191954Z 33018KT 09/M04 A3027 RMK A01 T00881037  RH  041%=      5-min Rain = 0
KSW1 191955Z 33015KT 09/M04 A3027 RMK A01 T00871036  RH  042%=      5-min Rain = 0
KSW1 191956Z 34014G20KT 09/M03 A3027 RMK A01 T00891034  RH  042%=      5-min Rain = 0
KSW1 191957Z 34017KT 09/M03 A3027 RMK A01 T00921034  RH  041%=      5-min Rain = 0
KSW1 191958Z 33019G24KT 09/M04 A3026 RMK A01 T00931035  RH  040%=      5-min Rain = 0
KSW1 191959Z 33018KT 09/M04 A3026 RMK A01 T00911038  RH  040%=      5-min Rain = 0
KSW1 192000Z 34018KT 09/M04 A3026 RMK A01 T00891036  RH  041%=      5-min Rain = 0
KSW1 192001Z 33016KT 09/M04 A3026 RMK A01 T00901035  RH  041%=      5-min Rain = 0
KSW1 192002Z 33018KT 09/M04 A3026 RMK A01 T00901035  RH  041%=      5-min Rain = 0
KSW1 192003Z 32019KT 09/M04 A3026 RMK A01 T00901035  RH  041%=      5-min Rain = 0
KSW1 192004Z 32019KT 09/M04 A3026 RMK A01 T00901035  RH  041%=      5-min Rain = 0
KSW1 192005Z 33015G20KT 09/M03 A3026 RMK A01 T00901034  RH  041%=      5-min Rain = 0
KSW1 192006Z 33016KT 09/M04 A3026 RMK A01 T00911035  RH  041%=      5-min Rain = 0
KSW1 192007Z 32015KT 09/M03 A3026 RMK A01 T00931032  RH  041%=      5-min Rain = 0
KSW1 192008Z 32013KT 10/M03 A3027 RMK A01 T00961031  RH  041%=      5-min Rain = 0
KSW1 192009Z 32014KT 10/M03 A3027 RMK A01 T00961032  RH  040%=      5-min Rain = 0
KSW1 192010Z 33015KT 10/M03 A3027 RMK A01 T00961031  RH  041%=      5-min Rain = 0
KSW1 192011Z 32015KT 10/M03 A3026 RMK A01 T00991030  RH  040%=      5-min Rain = 0
KSW1 192012Z 32019KT 10/M04 A3026 RMK A01 T00981035  RH  039%=      5-min Rain = 0
KSW1 192013Z 32018KT 09/M04 A3026 RMK A01 T00941038  RH  039%=      5-min Rain = 0
KSW1 192014Z 34016KT 09/M04 A3026 RMK A01 T00931035  RH  040%=      5-min Rain = 0
KSW1 192015Z 33017KT 09/M03 A3026 RMK A01 T00941034  RH  040%=      5-min Rain = 0
KSW1 192016Z 33015G20KT 10/M03 A3026 RMK A01 T00971031  RH  041%=      5-min Rain = 0
KSW1 192017Z 33014G19KT 10/M03 A3026 RMK A01 T00991034  RH  039%=      5-min Rain = 0
KSW1 192018Z 33016G23KT 10/M03 A3026 RMK A01 T00991032  RH  040%=      5-min Rain = 0
KSW1 192019Z 32017G23KT 10/M04 A3026 RMK A01 T01001035  RH  038%=      5-min Rain = 0
KSW1 192020Z 32018G23KT 10/M04 A3026 RMK A01 T01001036  RH  038%=      5-min Rain = 0
KSW1 192021Z 33023KT 10/M04 A3026 RMK A01 T00991038  RH  038%=      5-min Rain = 0
KSW1 192022Z 33021KT 10/M04 A3026 RMK A01 T00971040  RH  038%=      5-min Rain = 0
KSW1 192023Z 33019KT 10/M04 A3026 RMK A01 T00951039  RH  038%=      5-min Rain = 0
KSW1 192024Z 33017KT 10/M04 A3027 RMK A01 T00951040  RH  038%=      5-min Rain = 0
KSW1 192025Z 33019G25KT 10/M04 A3026 RMK A01 T00961037  RH  039%=      5-min Rain = 0
KSW1 192026Z 34015KT 10/M04 A3026 RMK A01 T00981036  RH  039%=      5-min Rain = 0
KSW1 192027Z 33020KT 10/M04 A3026 RMK A01 T01001035  RH  038%=      5-min Rain = 0
KSW1 192028Z 33018KT 10/M04 A3026 RMK A01 T00981039  RH  038%=      5-min Rain = 0
KSW1 192029Z 33020KT 10/M04 A3026 RMK A01 T00971036  RH  039%=      5-min Rain = 0
KSW1 192030Z 33017KT 10/M04 A3026 RMK A01 T00971036  RH  039%=      5-min Rain = 0
KSW1 192031Z 33012KT 10/M04 A3026 RMK A01 T00971036  RH  039%=      5-min Rain = 0
KSW1 192032Z 34015KT 10/M04 A3026 RMK A01 T00991036  RH  039%=      5-min Rain = 0
KSW1 192033Z 34014KT 10/M04 A3026 RMK A01 T00981035  RH  039%=      5-min Rain = 0
KSW1 192034Z 33014KT 10/M03 A3026 RMK A01 T01011029  RH  040%=      5-min Rain = 0
KSW1 192035Z 33019KT 10/M03 A3026 RMK A01 T01041033  RH  038%=      5-min Rain = 0
KSW1 192036Z 34015KT 10/M03 A3026 RMK A01 T01021034  RH  038%=      5-min Rain = 0
KSW1 192037Z 33017KT 10/M03 A3026 RMK A01 T01021033  RH  039%=      5-min Rain = 0
KSW1 192038Z 34017KT 10/M03 A3026 RMK A01 T01021034  RH  038%=      5-min Rain = 0
KSW1 192039Z 35016KT 10/M04 A3026 RMK A01 T01021036  RH  038%=      5-min Rain = 0
KSW1 192040Z 34018G23KT 10/M04 A3026 RMK A01 T01021036  RH  038%=      5-min Rain = 0
KSW1 192041Z 34017KT 10/M04 A3026 RMK A01 T01001036  RH  038%=      5-min Rain = 0
KSW1 192042Z 34016KT 10/M04 A3026 RMK A01 T01011035  RH  038%=      5-min Rain = 0
KSW1 192043Z 33016KT 10/M03 A3026 RMK A01 T01031031  RH  039%=      5-min Rain = 0
KSW1 192044Z 33012KT 11/M03 A3026 RMK A01 T01061029  RH  039%=      5-min Rain = 0
KSW1 192045Z 32017KT 11/M03 A3026 RMK A01 T01081032  RH  037%=      5-min Rain = 0
KSW1 192046Z 32018KT 10/M03 A3026 RMK A01 T01041034  RH  038%=      5-min Rain = 0
KSW1 192047Z 33015KT 10/M03 A3026 RMK A01 T01021034  RH  038%=      5-min Rain = 0
KSW1 192048Z 33016G22KT 10/M03 A3026 RMK A01 T01021031  RH  039%=      5-min Rain = 0
KSW1 192049Z 33018KT 10/M03 A3026 RMK A01 T01031033  RH  039%=      5-min Rain = 0
KSW1 192050Z 32016KT 10/M03 A3026 RMK A01 T01011032  RH  039%=      5-min Rain = 0
KSW1 192051Z 33016G21KT 10/M03 A3026 RMK A01 T01011032  RH  039%=      5-min Rain = 0
KSW1 192052Z 32016KT 10/M04 A3026 RMK A01 T01011035  RH  038%=      5-min Rain = 0
KSW1 192053Z 32014KT 10/M03 A3026 RMK A01 T01001033  RH  039%=      5-min Rain = 0
KSW1 192054Z 33014KT 10/M03 A3026 RMK A01 T01011034  RH  039%=      5-min Rain = 0
KSW1 192055Z 32014G20KT 10/M03 A3026 RMK A01 T01011032  RH  039%=      5-min Rain = 0
KSW1 192056Z 33015KT 10/M03 A3026 RMK A01 T01031033  RH  038%=      5-min Rain = 0
KSW1 192057Z 33019KT 10/M03 A3026 RMK A01 T01041032  RH  038%=      5-min Rain = 0
KSW1 192058Z 33017KT 10/M04 A3026 RMK A01 T01041035  RH  038%=      5-min Rain = 0
KSW1 192059Z 33015KT 10/M04 A3026 RMK A01 T01031035  RH  038%=      5-min Rain = 0
KSW1 192100Z 32014KT 10/M03 A3026 RMK A01 T01021034  RH  038%=      5-min Rain = 0
KSW1 192101Z 32016G21KT 10/M03 A3026 RMK A01 T01021034  RH  038%=      5-min Rain = 0
KSW1 192102Z 32015KT 10/M03 A3026 RMK A01 T01021033  RH  038%=      5-min Rain = 0
KSW1 192103Z 33014KT 10/M03 A3026 RMK A01 T01021033  RH  039%=      5-min Rain = 0
KSW1 192104Z 34013G19KT 10/M03 A3026 RMK A01 T01021031  RH  039%=      5-min Rain = 0
KSW1 192105Z 34018G23KT 11/M03 A3026 RMK A01 T01061032  RH  038%=      5-min Rain = 0
KSW1 192106Z 34019KT 11/M03 A3026 RMK A01 T01061033  RH  038%=      5-min Rain = 0
KSW1 192107Z 35017KT 11/M04 A3026 RMK A01 T01051035  RH  037%=      5-min Rain = 0
KSW1 192108Z 34013KT 10/M03 A3026 RMK A01 T01031034  RH  038%=      5-min Rain = 0
KSW1 192109Z 34015KT 11/M03 A3026 RMK A01 T01051030  RH  039%=      5-min Rain = 0
KSW1 192110Z 33013KT 11/M03 A3026 RMK A01 T01071030  RH  038%=      5-min Rain = 0
KSW1 192111Z 34015G21KT 11/M03 A3026 RMK A01 T01071032  RH  038%=      5-min Rain = 0
KSW1 192112Z 33019KT 11/M04 A3026 RMK A01 T01051036  RH  037%=      5-min Rain = 0
KSW1 192113Z 33020KT 10/M04 A3026 RMK A01 T01041039  RH  036%=      5-min Rain = 0
KSW1 192114Z 33018KT 10/M04 A3026 RMK A01 T01031038  RH  037%=      5-min Rain = 0
KSW1 192115Z 34016KT 10/M04 A3026 RMK A01 T01041035  RH  038%=      5-min Rain = 0
KSW1 192116Z 33013KT 11/M03 A3026 RMK A01 T01051033  RH  038%=      5-min Rain = 0
KSW1 192117Z 33016G21KT 11/M03 A3026 RMK A01 T01071032  RH  038%=      5-min Rain = 0
KSW1 192118Z 33015G20KT 11/M03 A3026 RMK A01 T01081033  RH  037%=      5-min Rain = 0
KSW1 192119Z 33015KT 11/M03 A3026 RMK A01 T01091033  RH  037%=      5-min Rain = 0
KSW1 192120Z 33017KT 11/M04 A3026 RMK A01 T01071036  RH  037%=      5-min Rain = 0
KSW1 192121Z 33013G18KT 11/M04 A3026 RMK A01 T01051036  RH  037%=      5-min Rain = 0
KSW1 192122Z 35011G17KT 11/M03 A3026 RMK A01 T01061032  RH  038%=      5-min Rain = 0
KSW1 192123Z 35016KT 11/M03 A3026 RMK A01 T01081034  RH  037%=      5-min Rain = 0
KSW1 192124Z 34017G22KT 11/M04 A3026 RMK A01 T01081037  RH  036%=      5-min Rain = 0
KSW1 192125Z 34017G22KT 11/M04 A3026 RMK A01 T01071037  RH  036%=      5-min Rain = 0
KSW1 192126Z 33017KT 11/M04 A3026 RMK A01 T01071037  RH  036%=      5-min Rain = 0
KSW1 192127Z 33017KT 11/M04 A3026 RMK A01 T01071037  RH  036%=      5-min Rain = 0
KSW1 192128Z 33018KT 11/M04 A3026 RMK A01 T01071037  RH  036%=      5-min Rain = 0
KSW1 192129Z 33017KT 11/M04 A3026 RMK A01 T01061038  RH  036%=      5-min Rain = 0
KSW1 192130Z 33016KT 11/M04 A3026 RMK A01 T01061037  RH  036%=      5-min Rain = 0
KSW1 192131Z 33016KT 11/M04 A3026 RMK A01 T01051039  RH  036%=      5-min Rain = 0
KSW1 192132Z 34015KT 10/M04 A3026 RMK A01 T01041037  RH  037%=      5-min Rain = 0
KSW1 192133Z 34015KT 11/M04 A3026 RMK A01 T01051036  RH  037%=      5-min Rain = 0
KSW1 192134Z 34015KT 11/M04 A3026 RMK A01 T01061036  RH  037%=      5-min Rain = 0
KSW1 192135Z 33014KT 11/M04 A3026 RMK A01 T01051037  RH  037%=      5-min Rain = 0
KSW1 192136Z 34013G19KT 10/M04 A3026 RMK A01 T01041037  RH  037%=      5-min Rain = 0
KSW1 192137Z 33013G18KT 11/M03 A3026 RMK A01 T01051034  RH  038%=      5-min Rain = 0
KSW1 192138Z 33016KT 11/M03 A3026 RMK A01 T01081032  RH  037%=      5-min Rain = 0
KSW1 192139Z 34018G23KT 11/M03 A3026 RMK A01 T01091034  RH  036%=      5-min Rain = 0
KSW1 192140Z 34018KT 11/M04 A3026 RMK A01 T01071037  RH  036%=      5-min Rain = 0
KSW1 192141Z 33017KT 11/M04 A3026 RMK A01 T01061036  RH  037%=      5-min Rain = 0
KSW1 192142Z 34013KT 11/M03 A3026 RMK A01 T01061034  RH  037%=      5-min Rain = 0
KSW1 192143Z 34015KT 11/M04 A3026 RMK A01 T01071036  RH  037%=      5-min Rain = 0
KSW1 192144Z 34012KT 11/M03 A3026 RMK A01 T01071034  RH  037%=      5-min Rain = 0
KSW1 192145Z 35013KT 11/M03 A3026 RMK A01 T01081034  RH  037%=      5-min Rain = 0
KSW1 192146Z 34012KT 11/M03 A3026 RMK A01 T01081034  RH  037%=      5-min Rain = 0
KSW1 192147Z 34011KT 11/M03 A3026 RMK A01 T01091033  RH  037%=      5-min Rain = 0
KSW1 192148Z 34018G23KT 11/M04 A3026 RMK A01 T01101035  RH  036%=      5-min Rain = 0
KSW1 192149Z 34015KT 11/M04 A3026 RMK A01 T01091035  RH  036%=      5-min Rain = 0
KSW1 192150Z 34015G20KT 11/M04 A3026 RMK A01 T01091035  RH  036%=      5-min Rain = 0
KSW1 192151Z 33016KT 11/M03 A3026 RMK A01 T01091034  RH  036%=      5-min Rain = 0
KSW1 192152Z 33019KT 11/M04 A3026 RMK A01 T01091037  RH  036%=      5-min Rain = 0
KSW1 192153Z 34014KT 11/M04 A3026 RMK A01 T01081036  RH  036%=      5-min Rain = 0
KSW1 192154Z 36014KT 11/M03 A3026 RMK A01 T01091034  RH  037%=      5-min Rain = 0
KSW1 192155Z 35015KT 11/M03 A3026 RMK A01 T01101034  RH  036%=      5-min Rain = 0
KSW1 192156Z 35016KT 11/M04 A3026 RMK A01 T01101035  RH  036%=      5-min Rain = 0
KSW1 192157Z 35015KT 11/M04 A3026 RMK A01 T01081036  RH  036%=      5-min Rain = 0
KSW1 192158Z 33015G20KT 11/M04 A3026 RMK A01 T01071036  RH  037%=      5-min Rain = 0
KSW1 192159Z 33016KT 11/M04 A3026 RMK A01 T01071035  RH  037%=      5-min Rain = 0
KSW1 192200Z 33017KT 11/M04 A3026 RMK A01 T01081035  RH  036%=      5-min Rain = 0
KSW1 192201Z 32017KT 11/M04 A3026 RMK A01 T01081035  RH  036%=      5-min Rain = 0
KSW1 192202Z 32017KT 11/M04 A3026 RMK A01 T01081035  RH  036%=      5-min Rain = 0
KSW1 192203Z 33014KT 11/M03 A3026 RMK A01 T01071034  RH  037%=      5-min Rain = 0
KSW1 192204Z 34014KT 11/M03 A3026 RMK A01 T01081034  RH  037%=      5-min Rain = 0
KSW1 192205Z 35017KT 11/M03 A3026 RMK A01 T01091034  RH  036%=      5-min Rain = 0
KSW1 192206Z 35016G21KT 11/M04 A3026 RMK A01 T01091036  RH  036%=      5-min Rain = 0
KSW1 192207Z 35014KT 11/M03 A3026 RMK A01 T01091033  RH  037%=      5-min Rain = 0
KSW1 192208Z 35017KT 11/M03 A3026 RMK A01 T01101033  RH  036%=      5-min Rain = 0
KSW1 192209Z 35016KT 11/M04 A3026 RMK A01 T01101036  RH  036%=      5-min Rain = 0
KSW1 192210Z 34018KT 11/M04 A3026 RMK A01 T01091035  RH  036%=      5-min Rain = 0
KSW1 192211Z 34018KT 11/M04 A3026 RMK A01 T01091037  RH  036%=      5-min Rain = 0
KSW1 192212Z 34021KT 11/M04 A3026 RMK A01 T01091037  RH  036%=      5-min Rain = 0
KSW1 192213Z 34018KT 11/M04 A3026 RMK A01 T01081039  RH  035%=      5-min Rain = 0
KSW1 192214Z 34015KT 11/M04 A3026 RMK A01 T01081039  RH  036%=      5-min Rain = 0
KSW1 192215Z 33012KT 11/M04 A3026 RMK A01 T01081035  RH  036%=      5-min Rain = 0
KSW1 192216Z 33018KT 11/M03 A3026 RMK A01 T01101034  RH  036%=      5-min Rain = 0
KSW1 192217Z 34016G21KT 11/M04 A3026 RMK A01 T01091037  RH  036%=      5-min Rain = 0
KSW1 192218Z 34017KT 11/M04 A3026 RMK A01 T01081036  RH  036%=      5-min Rain = 0
KSW1 192219Z 34018G23KT 11/M04 A3026 RMK A01 T01081036  RH  036%=      5-min Rain = 0
KSW1 192220Z 34015KT 11/M04 A3026 RMK A01 T01081035  RH  037%=      5-min Rain = 0
KSW1 192221Z 34015KT 11/M04 A3026 RMK A01 T01081035  RH  036%=      5-min Rain = 0
KSW1 192222Z 34019KT 11/M04 A3026 RMK A01 T01091036  RH  036%=      5-min Rain = 0
KSW1 192223Z 34018KT 11/M04 A3026 RMK A01 T01091039  RH  035%=      5-min Rain = 0
KSW1 192224Z 34013G20KT 11/M04 A3026 RMK A01 T01091037  RH  036%=      5-min Rain = 0
KSW1 192225Z 33016KT 11/M04 A3026 RMK A01 T01091036  RH  036%=      5-min Rain = 0
KSW1 192226Z 34014KT 11/M04 A3026 RMK A01 T01101038  RH  035%=      5-min Rain = 0
KSW1 192227Z 35016G21KT 11/M04 A3026 RMK A01 T01101036  RH  036%=      5-min Rain = 0
KSW1 192228Z 35017KT 11/M04 A3026 RMK A01 T01101035  RH  036%=      5-min Rain = 0
KSW1 192229Z 34020KT 11/M04 A3026 RMK A01 T01111039  RH  035%=      5-min Rain = 0
KSW1 192230Z 34019KT 11/M04 A3026 RMK A01 T01081041  RH  035%=      5-min Rain = 0
KSW1 192231Z 34019KT 11/M04 A3026 RMK A01 T01071041  RH  035%=      5-min Rain = 0
KSW1 192232Z 34019KT 11/M04 A3026 RMK A01 T01071040  RH  036%=      5-min Rain = 0
KSW1 192233Z 34018KT 11/M04 A3026 RMK A01 T01071040  RH  035%=      5-min Rain = 0
KSW1 192234Z 34017G22KT 11/M04 A3026 RMK A01 T01061040  RH  035%=      5-min Rain = 0
KSW1 192235Z 34020KT 11/M04 A3026 RMK A01 T01071040  RH  035%=      5-min Rain = 0
KSW1 192236Z 34018G23KT 11/M04 A3026 RMK A01 T01071039  RH  036%=      5-min Rain = 0
KSW1 192237Z 35018KT 11/M04 A3026 RMK A01 T01071039  RH  036%=      5-min Rain = 0
KSW1 192238Z 36016KT 11/M04 A3026 RMK A01 T01071039  RH  036%=      5-min Rain = 0
KSW1 192239Z 34016KT 11/M04 A3026 RMK A01 T01071039  RH  036%=      5-min Rain = 0
KSW1 192240Z 34018G23KT 11/M04 A3026 RMK A01 T01081038  RH  036%=      5-min Rain = 0
KSW1 192241Z 34017G22KT 11/M04 A3026 RMK A01 T01081038  RH  036%=      5-min Rain = 0
KSW1 192242Z 35018KT 11/M04 A3026 RMK A01 T01071039  RH  036%=      5-min Rain = 0
KSW1 192243Z 35017KT 11/M04 A3026 RMK A01 T01071038  RH  036%=      5-min Rain = 0
KSW1 192244Z 35017G22KT 11/M04 A3026 RMK A01 T01061039  RH  036%=      5-min Rain = 0
KSW1 192245Z 34014KT 11/M04 A3026 RMK A01 T01061038  RH  036%=      5-min Rain = 0
KSW1 192246Z 34013KT 11/M04 A3026 RMK A01 T01071037  RH  036%=      5-min Rain = 0
KSW1 192247Z 33013KT 11/M04 A3026 RMK A01 T01081035  RH  036%=      5-min Rain = 0
KSW1 192248Z 33017KT 11/M04 A3026 RMK A01 T01091037  RH  036%=      5-min Rain = 0
KSW1 192249Z 34014KT 11/M04 A3026 RMK A01 T01081038  RH  036%=      5-min Rain = 0
KSW1 192250Z 35015G20KT 11/M04 A3026 RMK A01 T01071038  RH  036%=      5-min Rain = 0
KSW1 192251Z 35016KT 11/M04 A3026 RMK A01 T01071039  RH  036%=      5-min Rain = 0
KSW1 192252Z 35014KT 11/M04 A3026 RMK A01 T01061039  RH  036%=      5-min Rain = 0
KSW1 192253Z 35015KT 11/M04 A3026 RMK A01 T01061038  RH  036%=      5-min Rain = 0
KSW1 192254Z 35015G20KT 11/M04 A3026 RMK A01 T01061039  RH  036%=      5-min Rain = 0
KSW1 192255Z 36016KT 11/M04 A3026 RMK A01 T01061038  RH  036%=      5-min Rain = 0
KSW1 192256Z 36015KT 11/M04 A3026 RMK A01 T01061039  RH  036%=      5-min Rain = 0
KSW1 192257Z 36014KT 11/M04 A3026 RMK A01 T01061039  RH  036%=      5-min Rain = 0
KSW1 192258Z 36015KT 11/M04 A3027 RMK A01 T01061038  RH  036%=      5-min Rain = 0
KSW1 192259Z 35013KT 11/M04 A3027 RMK A01 T01051038  RH  036%=      5-min Rain = 0
KSW1 192300Z 34015KT 11/M04 A3026 RMK A01 T01051039  RH  036%=      5-min Rain = 0
KSW1 192301Z 35015KT 11/M04 A3026 RMK A01 T01051040  RH  036%=      5-min Rain = 0
KSW1 192302Z 35013KT 10/M04 A3027 RMK A01 T01041039  RH  036%=      5-min Rain = 0
KSW1 192303Z 35015KT 11/M04 A3027 RMK A01 T01051037  RH  037%=      5-min Rain = 0
KSW1 192304Z 35012G17KT 11/M04 A3027 RMK A01 T01051038  RH  036%=      5-min Rain = 0
KSW1 192305Z 36011G17KT 11/M04 A3027 RMK A01 T01051037  RH  037%=      5-min Rain = 0
KSW1 192306Z 35011G16KT 11/M04 A3027 RMK A01 T01051037  RH  037%=      5-min Rain = 0
KSW1 192307Z 35013KT 11/M04 A3027 RMK A01 T01051036  RH  037%=      5-min Rain = 0
KSW1 192308Z 35012KT 11/M04 A3027 RMK A01 T01051037  RH  037%=      5-min Rain = 0
KSW1 192309Z 34013KT 11/M04 A3027 RMK A01 T01051036  RH  037%=      5-min Rain = 0
KSW1 192310Z 35012G17KT 11/M04 A3027 RMK A01 T01051036  RH  037%=      5-min Rain = 0
KSW1 192311Z 34017KT 11/M04 A3027 RMK A01 T01051037  RH  037%=      5-min Rain = 0
KSW1 192312Z 34014KT 10/M04 A3027 RMK A01 T01041040  RH  036%=      5-min Rain = 0
KSW1 192313Z 34012KT 10/M04 A3027 RMK A01 T01031038  RH  037%=      5-min Rain = 0
KSW1 192314Z 34012KT 10/M04 A3027 RMK A01 T01031036  RH  037%=      5-min Rain = 0
KSW1 192315Z 35011KT 10/M04 A3027 RMK A01 T01041037  RH  037%=      5-min Rain = 0
KSW1 192316Z 34011KT 10/M04 A3027 RMK A01 T01031036  RH  037%=      5-min Rain = 0
KSW1 192317Z 35010KT 10/M04 A3027 RMK A01 T01041035  RH  038%=      5-min Rain = 0
KSW1 192318Z 35012KT 10/M04 A3027 RMK A01 T01031036  RH  037%=      5-min Rain = 0
KSW1 192319Z 34013KT 10/M04 A3027 RMK A01 T01031038  RH  037%=      5-min Rain = 0
KSW1 192320Z 35014KT 10/M04 A3027 RMK A01 T01021038  RH  037%=      5-min Rain = 0
KSW1 192321Z 35013KT 10/M04 A3027 RMK A01 T01011038  RH  037%=      5-min Rain = 0
KSW1 192322Z 35011KT 10/M04 A3027 RMK A01 T01011037  RH  038%=      5-min Rain = 0
KSW1 192323Z 35014KT 10/M04 A3027 RMK A01 T01001038  RH  038%=      5-min Rain = 0
KSW1 192324Z 34013KT 10/M04 A3027 RMK A01 T01001037  RH  038%=      5-min Rain = 0
KSW1 192325Z 34014G19KT 10/M04 A3027 RMK A01 T01001038  RH  038%=      5-min Rain = 0
KSW1 192326Z 34015KT 10/M04 A3027 RMK A01 T01001038  RH  038%=      5-min Rain = 0
KSW1 192327Z 34014KT 10/M04 A3027 RMK A01 T00991039  RH  038%=      5-min Rain = 0
KSW1 192328Z 34013KT 10/M04 A3027 RMK A01 T00981038  RH  038%=      5-min Rain = 0
KSW1 192329Z 34011KT 10/M04 A3027 RMK A01 T00981038  RH  038%=      5-min Rain = 0
KSW1 192330Z 34014KT 10/M04 A3027 RMK A01 T00981038  RH  038%=      5-min Rain = 0
KSW1 192331Z 35012KT 10/M04 A3027 RMK A01 T00981038  RH  038%=      5-min Rain = 0
KSW1 192332Z 34014KT 10/M04 A3027 RMK A01 T00971038  RH  038%=      5-min Rain = 0
KSW1 192333Z 34011KT 10/M04 A3027 RMK A01 T00971039  RH  038%=      5-min Rain = 0
KSW1 192334Z 34013KT 10/M04 A3027 RMK A01 T00971038  RH  038%=      5-min Rain = 0
KSW1 192335Z 34013KT 10/M04 A3027 RMK A01 T00971039  RH  038%=      5-min Rain = 0
KSW1 192336Z 34012KT 10/M04 A3027 RMK A01 T00971038  RH  038%=      5-min Rain = 0
KSW1 192337Z 35011KT 10/M04 A3027 RMK A01 T00961038  RH  039%=      5-min Rain = 0
KSW1 192338Z 34010KT 10/M04 A3027 RMK A01 T00961038  RH  039%=      5-min Rain = 0
KSW1 192339Z 35011KT 10/M04 A3027 RMK A01 T00951038  RH  039%=      5-min Rain = 0
KSW1 192340Z 35011KT 10/M04 A3027 RMK A01 T00951037  RH  039%=      5-min Rain = 0
KSW1 192341Z 35011KT 09/M04 A3027 RMK A01 T00941038  RH  039%=      5-min Rain = 0
KSW1 192342Z 35012KT 09/M04 A3027 RMK A01 T00941038  RH  039%=      5-min Rain = 0
KSW1 192343Z 35010G16KT 09/M04 A3027 RMK A01 T00941038  RH  039%=      5-min Rain = 0
KSW1 192344Z 34011KT 09/M04 A3027 RMK A01 T00931038  RH  039%=      5-min Rain = 0
KSW1 192345Z 35010KT 09/M04 A3027 RMK A01 T00931038  RH  039%=      5-min Rain = 0
KSW1 192346Z 35009KT 09/M04 A3027 RMK A01 T00931038  RH  039%=      5-min Rain = 0
KSW1 192347Z 36011KT 09/M04 A3027 RMK A01 T00921038  RH  040%=      5-min Rain = 0
KSW1 192348Z 35009KT 09/M04 A3027 RMK A01 T00911038  RH  040%=      5-min Rain = 0
KSW1 192349Z 35010KT 09/M04 A3027 RMK A01 T00911038  RH  040%=      5-min Rain = 0
KSW1 192350Z 36009KT 09/M04 A3027 RMK A01 T00901039  RH  040%=      5-min Rain = 0
KSW1 192351Z 36009KT 09/M04 A3027 RMK A01 T00911038  RH  040%=      5-min Rain = 0
KSW1 192352Z 00008KT 09/M04 A3027 RMK A01 T00901038  RH  040%=      5-min Rain = 0
KSW1 192353Z 00008KT 09/M04 A3027 RMK A01 T00881038  RH  041%=      5-min Rain = 0
KSW1 192354Z 01007KT 09/M04 A3027 RMK A01 T00881038  RH  041%=      5-min Rain = 0
KSW1 192355Z 00009KT 09/M04 A3027 RMK A01 T00871038  RH  041%=      5-min Rain = 0
KSW1 192356Z 00008KT 09/M04 A3027 RMK A01 T00861038  RH  041%=      5-min Rain = 0
KSW1 192357Z 01008KT 09/M04 A3027 RMK A01 T00861038  RH  042%=      5-min Rain = 0
KSW1 192358Z 01007KT 08/M04 A3027 RMK A01 T00841038  RH  042%=      5-min Rain = 0
KSW1 192359Z 01006KT 08/M04 A3027 RMK A01 T00831037  RH  042%=      5-min Rain = 0
KSW1 200000Z 02005KT 08/M04 A3027 RMK A01 T00821037  RH  043%=      5-min Rain = 0
KSW1 200001Z 02006KT 08/M04 A3027 RMK A01 T00811037  RH  043%=      5-min Rain = 0
KSW1 200002Z 02006KT 08/M04 A3027 RMK A01 T00791038  RH  043%=      5-min Rain = 0
KSW1 200003Z 02007KT 08/M04 A3027 RMK A01 T00771038  RH  044%=      5-min Rain = 0
KSW1 200004Z 02007KT 08/M04 A3027 RMK A01 T00761037  RH  044%=      5-min Rain = 0
KSW1 200005Z 02008KT 08/M04 A3027 RMK A01 T00751037  RH  045%=      5-min Rain = 0
KSW1 200006Z 02009KT 07/M04 A3027 RMK A01 T00741036  RH  045%=      5-min Rain = 0
KSW1 200007Z 02008KT 07/M04 A3027 RMK A01 T00741036  RH  046%=      5-min Rain = 0
KSW1 200008Z 02007KT 07/M04 A3027 RMK A01 T00741035  RH  046%=      5-min Rain = 0
KSW1 200009Z 03008KT 07/M04 A3027 RMK A01 T00731035  RH  046%=      5-min Rain = 0
KSW1 200010Z 03007KT 07/M04 A3027 RMK A01 T00721035  RH  046%=      5-min Rain = 0
KSW1 200011Z 03007KT 07/M04 A3027 RMK A01 T00701035  RH  047%=      5-min Rain = 0
KSW1 200012Z 04007KT 07/M04 A3027 RMK A01 T00691035  RH  048%=      5-min Rain = 0
KSW1 200013Z 04007KT 07/M04 A3027 RMK A01 T00681035  RH  048%=      5-min Rain = 0
KSW1 200014Z 04007KT 07/M03 A3027 RMK A01 T00681034  RH  048%=      5-min Rain = 0
KSW1 200015Z 04007KT 07/M03 A3027 RMK A01 T00671034  RH  049%=      5-min Rain = 0
KSW1 200016Z 03007KT 07/M03 A3027 RMK A01 T00661034  RH  049%=      5-min Rain = 0
KSW1 200017Z 03007KT 07/M03 A3027 RMK A01 T00651034  RH  049%=      5-min Rain = 0
KSW1 200018Z 04007KT 07/M03 A3027 RMK A01 T00651034  RH  049%=      5-min Rain = 0
KSW1 200019Z 04007KT 06/M03 A3027 RMK A01 T00641033  RH  050%=      5-min Rain = 0
KSW1 200020Z 03007KT 06/M03 A3027 RMK A01 T00631034  RH  050%=      5-min Rain = 0
KSW1 200021Z 03007KT 06/M03 A3027 RMK A01 T00621034  RH  050%=      5-min Rain = 0
KSW1 200022Z 03007KT 06/M03 A3027 RMK A01 T00621033  RH  051%=      5-min Rain = 0
KSW1 200023Z 03007KT 06/M03 A3027 RMK A01 T00611034  RH  051%=      5-min Rain = 0
KSW1 200024Z 03007KT 06/M03 A3027 RMK A01 T00611034  RH  051%=      5-min Rain = 0
KSW1 200025Z 03007KT 06/M03 A3027 RMK A01 T00611034  RH  051%=      5-min Rain = 0
KSW1 200026Z 03008KT 06/M03 A3027 RMK A01 T00601034  RH  051%=      5-min Rain = 0
KSW1 200027Z 03007KT 06/M03 A3027 RMK A01 T00601033  RH  051%=      5-min Rain = 0
KSW1 200028Z 03008KT 06/M03 A3027 RMK A01 T00591034  RH  051%=      5-min Rain = 0
KSW1 200029Z 03008KT 06/M03 A3027 RMK A01 T00581034  RH  052%=      5-min Rain = 0
KSW1 200030Z 03008KT 06/M03 A3027 RMK A01 T00561034  RH  052%=      5-min Rain = 0
KSW1 200031Z 03008KT 06/M03 A3027 RMK A01 T00551034  RH  053%=      5-min Rain = 0
KSW1 200032Z 04008KT 05/M03 A3027 RMK A01 T00541034  RH  053%=      5-min Rain = 0
KSW1 200033Z 04008KT 05/M03 A3027 RMK A01 T00531034  RH  053%=      5-min Rain = 0
KSW1 200034Z 03008KT 05/M03 A3027 RMK A01 T00521034  RH  054%=      5-min Rain = 0
KSW1 200035Z 03008KT 05/M03 A3027 RMK A01 T00511034  RH  054%=      5-min Rain = 0
KSW1 200036Z 03008KT 05/M03 A3027 RMK A01 T00511033  RH  054%=      5-min Rain = 0
KSW1 200037Z 04008KT 05/M03 A3027 RMK A01 T00521033  RH  054%=      5-min Rain = 0
KSW1 200038Z 03008KT 05/M03 A3028 RMK A01 T00531033  RH  054%=      5-min Rain = 0
KSW1 200039Z 03008KT 05/M03 A3028 RMK A01 T00531033  RH  054%=      5-min Rain = 0
KSW1 200040Z 03008KT 05/M03 A3028 RMK A01 T00531033  RH  054%=      5-min Rain = 0
KSW1 200041Z 03008KT 05/M03 A3028 RMK A01 T00521034  RH  054%=      5-min Rain = 0
KSW1 200042Z 03007KT 05/M03 A3028 RMK A01 T00511034  RH  054%=      5-min Rain = 0
KSW1 200043Z 03008KT 05/M03 A3028 RMK A01 T00511034  RH  054%=      5-min Rain = 0
KSW1 200044Z 03007KT 05/M03 A3028 RMK A01 T00501034  RH  054%=      5-min Rain = 0
KSW1 200045Z 03008KT 05/M03 A3028 RMK A01 T00501034  RH  055%=      5-min Rain = 0
KSW1 200046Z 03008KT 05/M03 A3028 RMK A01 T00501033  RH  055%=      5-min Rain = 0
KSW1 200047Z 03008KT 05/M03 A3028 RMK A01 T00501033  RH  055%=      5-min Rain = 0
KSW1 200048Z 03008KT 05/M03 A3028 RMK A01 T00491034  RH  055%=      5-min Rain = 0
KSW1 200049Z 03008KT 05/M03 A3028 RMK A01 T00491034  RH  055%=      5-min Rain = 0
KSW1 200050Z 03008KT 05/M03 A3028 RMK A01 T00491033  RH  055%=      5-min Rain = 0
KSW1 200051Z 03008KT 05/M03 A3028 RMK A01 T00481034  RH  056%=      5-min Rain = 0
KSW1 200052Z 03008KT 05/M03 A3028 RMK A01 T00471034  RH  056%=      5-min Rain = 0
KSW1 200053Z 03008KT 05/M03 A3028 RMK A01 T00471034  RH  056%=      5-min Rain = 0
KSW1 200054Z 03008KT 05/M03 A3028 RMK A01 T00471034  RH  056%=      5-min Rain = 0
KSW1 200055Z 03008KT 05/M04 A3028 RMK A01 T00461035  RH  056%=      5-min Rain = 0
KSW1 200056Z 03007KT 05/M04 A3028 RMK A01 T00471035  RH  055%=      5-min Rain = 0
KSW1 200057Z 03007KT 05/M04 A3028 RMK A01 T00471035  RH  055%=      5-min Rain = 0
KSW1 200058Z 03007KT 05/M04 A3029 RMK A01 T00471035  RH  055%=      5-min Rain = 0
KSW1 200059Z 03007KT 05/M04 A3028 RMK A01 T00471036  RH  055%=      5-min Rain = 0
KSW1 200100Z 03007KT 05/M04 A3029 RMK A01 T00471036  RH  055%=      5-min Rain = 0
KSW1 200101Z 03007KT 05/M04 A3028 RMK A01 T00471036  RH  055%=      5-min Rain = 0
KSW1 200102Z 03007KT 05/M04 A3028 RMK A01 T00471036  RH  055%=      5-min Rain = 0
KSW1 200103Z 03007KT 05/M04 A3028 RMK A01 T00471036  RH  055%=      5-min Rain = 0
KSW1 200104Z 03008KT 05/M04 A3028 RMK A01 T00461035  RH  056%=      5-min Rain = 0
KSW1 200105Z 03008KT 05/M04 A3028 RMK A01 T00451036  RH  056%=      5-min Rain = 0
KSW1 200106Z 03008KT 05/M04 A3028 RMK A01 T00451036  RH  056%=      5-min Rain = 0
KSW1 200107Z 04008KT 04/M04 A3029 RMK A01 T00441036  RH  056%=      5-min Rain = 0
KSW1 200108Z 04008KT 04/M04 A3029 RMK A01 T00441036  RH  056%=      5-min Rain = 0
KSW1 200109Z 04008KT 04/M04 A3028 RMK A01 T00431036  RH  056%=      5-min Rain = 0
KSW1 200110Z 04008KT 04/M04 A3028 RMK A01 T00421036  RH  057%=      5-min Rain = 0
KSW1 200111Z 04008KT 04/M04 A3028 RMK A01 T00411037  RH  057%=      5-min Rain = 0
KSW1 200112Z 04008KT 04/M04 A3028 RMK A01 T00401037  RH  057%=      5-min Rain = 0
KSW1 200113Z 04008KT 04/M04 A3028 RMK A01 T00401036  RH  057%=      5-min Rain = 0
KSW1 200114Z 04008KT 04/M04 A3028 RMK A01 T00401036  RH  058%=      5-min Rain = 0
KSW1 200115Z 04008KT 04/M04 A3028 RMK A01 T00391037  RH  058%=      5-min Rain = 0
KSW1 200116Z 04008KT 04/M04 A3028 RMK A01 T00391036  RH  058%=      5-min Rain = 0
KSW1 200117Z 04008KT 04/M04 A3028 RMK A01 T00381036  RH  058%=      5-min Rain = 0
KSW1 200118Z 04008KT 04/M04 A3028 RMK A01 T00381036  RH  058%=      5-min Rain = 0
KSW1 200119Z 04007KT 04/M04 A3029 RMK A01 T00381036  RH  058%=      5-min Rain = 0
KSW1 200120Z 04007KT 04/M04 A3029 RMK A01 T00391036  RH  058%=      5-min Rain = 0
KSW1 200121Z 04007KT 04/M04 A3029 RMK A01 T00391036  RH  058%=      5-min Rain = 0
KSW1 200122Z 04007KT 04/M04 A3029 RMK A01 T00391036  RH  058%=      5-min Rain = 0
KSW1 200123Z 04007KT 04/M04 A3029 RMK A01 T00381036  RH  058%=      5-min Rain = 0
KSW1 200124Z 04007KT 04/M04 A3029 RMK A01 T00381036  RH  059%=      5-min Rain = 0
KSW1 200125Z 04007KT 04/M04 A3029 RMK A01 T00371036  RH  059%=      5-min Rain = 0
KSW1 200126Z 04008KT 04/M04 A3029 RMK A01 T00361036  RH  059%=      5-min Rain = 0
KSW1 200127Z 04008KT 04/M04 A3029 RMK A01 T00351036  RH  059%=      5-min Rain = 0
KSW1 200128Z 04008KT 04/M04 A3029 RMK A01 T00351036  RH  060%=      5-min Rain = 0
KSW1 200129Z 04009KT 03/M04 A3029 RMK A01 T00341036  RH  060%=      5-min Rain = 0
KSW1 200130Z 04009KT 03/M04 A3029 RMK A01 T00341036  RH  060%=      5-min Rain = 0
KSW1 200131Z 04009KT 03/M04 A3029 RMK A01 T00341036  RH  060%=      5-min Rain = 0
KSW1 200132Z 04009KT 04/M04 A3029 RMK A01 T00351036  RH  060%=      5-min Rain = 0
KSW1 200133Z 03009KT 04/M04 A3029 RMK A01 T00361036  RH  059%=      5-min Rain = 0
KSW1 200134Z 03009KT 04/M04 A3029 RMK A01 T00361036  RH  059%=      5-min Rain = 0
KSW1 200135Z 03009KT 04/M04 A3029 RMK A01 T00371036  RH  059%=      5-min Rain = 0
KSW1 200136Z 03009KT 04/M04 A3029 RMK A01 T00371036  RH  059%=      5-min Rain = 0
KSW1 200137Z 03009KT 04/M04 A3029 RMK A01 T00381036  RH  058%=      5-min Rain = 0
KSW1 200138Z 03008KT 04/M04 A3029 RMK A01 T00381036  RH  058%=      5-min Rain = 0
KSW1 200139Z 03009KT 04/M04 A3029 RMK A01 T00381036  RH  058%=      5-min Rain = 0
KSW1 200140Z 03009KT 04/M04 A3029 RMK A01 T00391036  RH  058%=      5-min Rain = 0
KSW1 200141Z 03008KT 04/M04 A3029 RMK A01 T00381037  RH  058%=      5-min Rain = 0
KSW1 200142Z 03008KT 04/M04 A3029 RMK A01 T00381037  RH  058%=      5-min Rain = 0
KSW1 200143Z 03008KT 04/M04 A3029 RMK A01 T00371037  RH  058%=      5-min Rain = 0
KSW1 200144Z 03008KT 04/M04 A3029 RMK A01 T00371037  RH  059%=      5-min Rain = 0
KSW1 200145Z 03008KT 04/M04 A3029 RMK A01 T00361037  RH  059%=      5-min Rain = 0
KSW1 200146Z 03008KT 04/M04 A3029 RMK A01 T00351037  RH  059%=      5-min Rain = 0
KSW1 200147Z 03008KT 04/M04 A3029 RMK A01 T00351037  RH  059%=      5-min Rain = 0
KSW1 200148Z 04008KT 03/M04 A3029 RMK A01 T00341037  RH  060%=      5-min Rain = 0
KSW1 200149Z 04008KT 03/M04 A303 RMK A01 T00331037  RH  060%=      5-min Rain = 0
KSW1 200150Z 04008KT 03/M04 A303 RMK A01 T00321038  RH  060%=      5-min Rain = 0
KSW1 200151Z 04008KT 03/M04 A303 RMK A01 T00311038  RH  061%=      5-min Rain = 0
KSW1 200152Z 04007KT 03/M04 A303 RMK A01 T00301038  RH  061%=      5-min Rain = 0
KSW1 200153Z 04007KT 03/M04 A303 RMK A01 T00301037  RH  061%=      5-min Rain = 0
KSW1 200154Z 04007KT 03/M04 A303 RMK A01 T00291037  RH  062%=      5-min Rain = 0
KSW1 200155Z 04007KT 03/M04 A303 RMK A01 T00291037  RH  062%=      5-min Rain = 0
KSW1 200156Z 04007KT 03/M04 A303 RMK A01 T00281037  RH  062%=      5-min Rain = 0
KSW1 200157Z 04007KT 03/M04 A303 RMK A01 T00281037  RH  062%=      5-min Rain = 0
KSW1 200158Z 04008KT 03/M04 A303 RMK A01 T00281037  RH  062%=      5-min Rain = 0
KSW1 200159Z 04008KT 03/M04 A303 RMK A01 T00281037  RH  062%=      5-min Rain = 0
KSW1 200200Z 04008KT 03/M04 A303 RMK A01 T00281037  RH  062%=      5-min Rain = 0
KSW1 200201Z 04008KT 03/M04 A303 RMK A01 T00291036  RH  062%=      5-min Rain = 0
KSW1 200202Z 04009KT 03/M04 A303 RMK A01 T00291036  RH  062%=      5-min Rain = 0
KSW1 200203Z 04009KT 03/M04 A303 RMK A01 T00291036  RH  062%=      5-min Rain = 0
KSW1 200204Z 03009KT 03/M04 A303 RMK A01 T00291036  RH  062%=      5-min Rain = 0
KSW1 200205Z 03009KT 03/M04 A303 RMK A01 T00291036  RH  062%=      5-min Rain = 0
KSW1 200206Z 03009KT 03/M04 A303 RMK A01 T00291036  RH  062%=      5-min Rain = 0
KSW1 200207Z 03009KT 03/M04 A303 RMK A01 T00291036  RH  062%=      5-min Rain = 0
KSW1 200208Z 03009KT 03/M04 A303 RMK A01 T00291037  RH  062%=      5-min Rain = 0
KSW1 200209Z 03009KT 03/M04 A303 RMK A01 T00301037  RH  062%=      5-min Rain = 0
KSW1 200210Z 03008KT 03/M04 A303 RMK A01 T00301037  RH  062%=      5-min Rain = 0
KSW1 200211Z 03009KT 03/M04 A3031 RMK A01 T00301037  RH  062%=      5-min Rain = 0
KSW1 200212Z 03009KT 03/M04 A3031 RMK A01 T00301037  RH  062%=      5-min Rain = 0
KSW1 200213Z 03009KT 03/M04 A3031 RMK A01 T00291037  RH  062%=      5-min Rain = 0
KSW1 200214Z 03009KT 03/M04 A3031 RMK A01 T00291037  RH  062%=      5-min Rain = 0
KSW1 200215Z 03009KT 03/M04 A3031 RMK A01 T00281037  RH  062%=      5-min Rain = 0
KSW1 200216Z 04009KT 03/M04 A3031 RMK A01 T00281037  RH  062%=      5-min Rain = 0
KSW1 200217Z 04009KT 03/M04 A3031 RMK A01 T00281037  RH  062%=      5-min Rain = 0
KSW1 200218Z 04009KT 03/M04 A3031 RMK A01 T00281037  RH  062%=      5-min Rain = 0
KSW1 200219Z 04009KT 03/M04 A3031 RMK A01 T00281037  RH  062%=      5-min Rain = 0
KSW1 200220Z 04009KT 03/M04 A3031 RMK A01 T00281037  RH  063%=      5-min Rain = 0
KSW1 200221Z 04009KT 03/M04 A3031 RMK A01 T00281037  RH  063%=      5-min Rain = 0
KSW1 200222Z 04009KT 03/M04 A3031 RMK A01 T00281037  RH  062%=      5-min Rain = 0
KSW1 200223Z 04008KT 03/M04 A3031 RMK A01 T00281037  RH  062%=      5-min Rain = 0
KSW1 200224Z 04008KT 03/M04 A3031 RMK A01 T00281037  RH  062%=      5-min Rain = 0
KSW1 200225Z 04008KT 03/M04 A3031 RMK A01 T00281037  RH  062%=      5-min Rain = 0
KSW1 200226Z 04009KT 03/M04 A3031 RMK A01 T00281036  RH  062%=      5-min Rain = 0
KSW1 200227Z 04008KT 03/M04 A3031 RMK A01 T00281037  RH  062%=      5-min Rain = 0
KSW1 200228Z 04009KT 03/M04 A3031 RMK A01 T00281036  RH  062%=      5-min Rain = 0
KSW1 200229Z 04009KT 03/M04 A3031 RMK A01 T00281036  RH  062%=      5-min Rain = 0
KSW1 200230Z 04008KT 03/M04 A3031 RMK A01 T00281036  RH  062%=      5-min Rain = 0
KSW1 200231Z 04008KT 03/M04 A3031 RMK A01 T00291037  RH  062%=      5-min Rain = 0
KSW1 200232Z 04008KT 03/M04 A3031 RMK A01 T00291037  RH  062%=      5-min Rain = 0
KSW1 200233Z 04008KT 03/M04 A3031 RMK A01 T00291037  RH  062%=      5-min Rain = 0
KSW1 200234Z 04008KT 03/M04 A3031 RMK A01 T00291037  RH  062%=      5-min Rain = 0
KSW1 200235Z 04008KT 03/M04 A303 RMK A01 T00291037  RH  062%=      5-min Rain = 0
KSW1 200236Z 04008KT 03/M04 A303 RMK A01 T00291037  RH  062%=      5-min Rain = 0
KSW1 200237Z 04008KT 03/M04 A303 RMK A01 T00281038  RH  062%=      5-min Rain = 0
KSW1 200238Z 05008KT 03/M04 A303 RMK A01 T00271038  RH  062%=      5-min Rain = 0
KSW1 200239Z 05008KT 03/M04 A303 RMK A01 T00271038  RH  063%=      5-min Rain = 0
KSW1 200240Z 05008KT 03/M04 A303 RMK A01 T00251038  RH  063%=      5-min Rain = 0
KSW1 200241Z 05008KT 03/M04 A303 RMK A01 T00251038  RH  063%=      5-min Rain = 0
KSW1 200242Z 05008KT 02/M04 A303 RMK A01 T00241038  RH  064%=      5-min Rain = 0
KSW1 200243Z 05007KT 02/M04 A303 RMK A01 T00231038  RH  064%=      5-min Rain = 0
KSW1 200244Z 05007KT 02/M04 A303 RMK A01 T00221038  RH  065%=      5-min Rain = 0
KSW1 200245Z 06007KT 02/M04 A303 RMK A01 T00211038  RH  065%=      5-min Rain = 0
KSW1 200246Z 06007KT 02/M04 A303 RMK A01 T00211038  RH  065%=      5-min Rain = 0
KSW1 200247Z 06007KT 02/M04 A303 RMK A01 T00201038  RH  065%=      5-min Rain = 0
KSW1 200248Z 06007KT 02/M04 A303 RMK A01 T00201038  RH  065%=      5-min Rain = 0
KSW1 200249Z 06007KT 02/M04 A303 RMK A01 T00201038  RH  066%=      5-min Rain = 0
KSW1 200250Z 06006KT 02/M04 A303 RMK A01 T00201038  RH  066%=      5-min Rain = 0
KSW1 200251Z 07006KT 02/M04 A303 RMK A01 T00211037  RH  066%=      5-min Rain = 0
KSW1 200252Z 07006KT 02/M04 A303 RMK A01 T00201037  RH  066%=      5-min Rain = 0
KSW1 200253Z 07006KT 02/M04 A303 RMK A01 T00201037  RH  066%=      5-min Rain = 0
KSW1 200254Z 08007KT 02/M04 A303 RMK A01 T00191037  RH  067%=      5-min Rain = 0
KSW1 200255Z 08007KT 02/M04 A303 RMK A01 T00171037  RH  067%=      5-min Rain = 0
KSW1 200256Z 08007KT 02/M04 A303 RMK A01 T00151038  RH  068%=      5-min Rain = 0
KSW1 200257Z 07008KT 01/M04 A303 RMK A01 T00141038  RH  068%=      5-min Rain = 0
KSW1 200258Z 07008KT 01/M04 A303 RMK A01 T00121039  RH  069%=      5-min Rain = 0
KSW1 200259Z 07008KT 01/M04 A303 RMK A01 T00121038  RH  069%=      5-min Rain = 0
KSW1 200300Z 07008KT 01/M04 A303 RMK A01 T00111038  RH  070%=      5-min Rain = 0
KSW1 200301Z 06008KT 01/M04 A303 RMK A01 T00121037  RH  070%=      5-min Rain = 0
KSW1 200302Z 06008KT 01/M04 A303 RMK A01 T00131036  RH  070%=      5-min Rain = 0
KSW1 200303Z 06009KT 01/M04 A3029 RMK A01 T00141036  RH  069%=      5-min Rain = 0
KSW1 200304Z 06009KT 01/M04 A3029 RMK A01 T00141036  RH  069%=      5-min Rain = 0
KSW1 200305Z 06009KT 02/M04 A3029 RMK A01 T00151036  RH  069%=      5-min Rain = 0
KSW1 200306Z 06009KT 02/M04 A3029 RMK A01 T00161036  RH  068%=      5-min Rain = 0
KSW1 200307Z 06009KT 02/M04 A3029 RMK A01 T00171036  RH  068%=      5-min Rain = 0
KSW1 200308Z 06009KT 02/M04 A3029 RMK A01 T00161036  RH  068%=      5-min Rain = 0
KSW1 200309Z 06009KT 02/M04 A303 RMK A01 T00171036  RH  068%=      5-min Rain = 0
KSW1 200310Z 06009KT 02/M04 A303 RMK A01 T00171037  RH  068%=      5-min Rain = 0
KSW1 200311Z 06009KT 02/M04 A303 RMK A01 T00171037  RH  067%=      5-min Rain = 0
KSW1 200312Z 06009KT 02/M04 A303 RMK A01 T00181037  RH  067%=      5-min Rain = 0
KSW1 200313Z 06009KT 02/M04 A303 RMK A01 T00181037  RH  067%=      5-min Rain = 0
KSW1 200314Z 06009KT 02/M04 A303 RMK A01 T00181037  RH  067%=      5-min Rain = 0
KSW1 200315Z 06009KT 02/M04 A303 RMK A01 T00181037  RH  067%=      5-min Rain = 0
KSW1 200316Z 06008KT 02/M04 A303 RMK A01 T00191037  RH  066%=      5-min Rain = 0
KSW1 200317Z 06008KT 02/M04 A303 RMK A01 T00191037  RH  066%=      5-min Rain = 0
KSW1 200318Z 06008KT 02/M04 A303 RMK A01 T00191037  RH  066%=      5-min Rain = 0
KSW1 200319Z 06008KT 02/M04 A303 RMK A01 T00191037  RH  066%=      5-min Rain = 0
KSW1 200320Z 06008KT 02/M04 A303 RMK A01 T00191037  RH  067%=      5-min Rain = 0
KSW1 200321Z 06008KT 02/M04 A303 RMK A01 T00191037  RH  067%=      5-min Rain = 0
KSW1 200322Z 06008KT 02/M04 A303 RMK A01 T00181037  RH  067%=      5-min Rain = 0
KSW1 200323Z 06007KT 02/M04 A303 RMK A01 T00181037  RH  067%=      5-min Rain = 0
KSW1 200324Z 06007KT 02/M04 A303 RMK A01 T00181036  RH  067%=      5-min Rain = 0
KSW1 200325Z 06007KT 02/M04 A303 RMK A01 T00181037  RH  067%=      5-min Rain = 0
KSW1 200326Z 06007KT 02/M04 A303 RMK A01 T00181037  RH  067%=      5-min Rain = 0
KSW1 200327Z 06007KT 02/M04 A303 RMK A01 T00181037  RH  067%=      5-min Rain = 0
KSW1 200328Z 06007KT 02/M04 A3031 RMK A01 T00181037  RH  067%=      5-min Rain = 0
KSW1 200329Z 06008KT 02/M04 A3031 RMK A01 T00171037  RH  067%=      5-min Rain = 0
KSW1 200330Z 06008KT 02/M04 A3031 RMK A01 T00171038  RH  067%=      5-min Rain = 0
KSW1 200331Z 05008KT 02/M04 A3031 RMK A01 T00171038  RH  067%=      5-min Rain = 0
KSW1 200332Z 06007KT 02/M04 A3031 RMK A01 T00171038  RH  067%=      5-min Rain = 0
KSW1 200333Z 06007KT 02/M04 A3031 RMK A01 T00171038  RH  067%=      5-min Rain = 0
KSW1 200334Z 06007KT 02/M04 A3031 RMK A01 T00171038  RH  067%=      5-min Rain = 0
KSW1 200335Z 06007KT 02/M04 A3031 RMK A01 T00171038  RH  067%=      5-min Rain = 0
KSW1 200336Z 06007KT 02/M04 A3031 RMK A01 T00161038  RH  067%=      5-min Rain = 0
KSW1 200337Z 06008KT 02/M04 A3031 RMK A01 T00161038  RH  067%=      5-min Rain = 0
KSW1 200338Z 06008KT 02/M04 A3031 RMK A01 T00151038  RH  067%=      5-min Rain = 0
KSW1 200339Z 06008KT 02/M04 A3031 RMK A01 T00161038  RH  067%=      5-min Rain = 0
KSW1 200340Z 06007KT 02/M04 A3031 RMK A01 T00161038  RH  067%=      5-min Rain = 0
KSW1 200341Z 06007KT 02/M04 A3031 RMK A01 T00161038  RH  067%=      5-min Rain = 0
KSW1 200342Z 06007KT 02/M04 A3031 RMK A01 T00171038  RH  067%=      5-min Rain = 0
KSW1 200343Z 06007KT 02/M04 A3031 RMK A01 T00171038  RH  067%=      5-min Rain = 0
KSW1 200344Z 05006KT 02/M04 A3031 RMK A01 T00171038  RH  067%=      5-min Rain = 0
KSW1 200345Z 05006KT 02/M04 A3032 RMK A01 T00171039  RH  066%=      5-min Rain = 0
KSW1 200346Z 05006KT 02/M04 A3032 RMK A01 T00171039  RH  066%=      5-min Rain = 0
KSW1 200347Z 05006KT 02/M04 A3032 RMK A01 T00171039  RH  066%=      5-min Rain = 0
KSW1 200348Z 06006KT 02/M04 A3032 RMK A01 T00161040  RH  067%=      5-min Rain = 0
KSW1 200349Z 06006KT 02/M04 A3032 RMK A01 T00151040  RH  067%=      5-min Rain = 0
KSW1 200350Z 06007KT 02/M04 A3032 RMK A01 T00151040  RH  067%=      5-min Rain = 0
KSW1 200351Z 06007KT 01/M04 A3032 RMK A01 T00141040  RH  067%=      5-min Rain = 0
KSW1 200352Z 06007KT 01/M04 A3032 RMK A01 T00131040  RH  068%=      5-min Rain = 0
KSW1 200353Z 06007KT 01/M04 A3032 RMK A01 T00131040  RH  068%=      5-min Rain = 0
KSW1 200354Z 05008KT 01/M04 A3032 RMK A01 T00121040  RH  068%=      5-min Rain = 0
KSW1 200355Z 06008KT 01/M04 A3032 RMK A01 T00121040  RH  068%=      5-min Rain = 0
KSW1 200356Z 06008KT 01/M04 A3032 RMK A01 T00121040  RH  068%=      5-min Rain = 0
KSW1 200357Z 06008KT 01/M04 A3032 RMK A01 T00121040  RH  069%=      5-min Rain = 0
KSW1 200358Z 06008KT 01/M04 A3032 RMK A01 T00111040  RH  069%=      5-min Rain = 0
KSW1 200359Z 06008KT 01/M04 A3032 RMK A01 T00101040  RH  069%=      5-min Rain = 0
KSW1 200400Z 06009KT 01/M04 A3031 RMK A01 T00101040  RH  069%=      5-min Rain = 0
KSW1 200401Z 06009KT 01/M04 A3031 RMK A01 T00091040  RH  070%=      5-min Rain = 0
KSW1 200402Z 06009KT 01/M04 A3031 RMK A01 T00091040  RH  070%=      5-min Rain = 0
KSW1 200403Z 06009KT 01/M04 A3031 RMK A01 T00091039  RH  070%=      5-min Rain = 0
KSW1 200404Z 06009KT 01/M04 A3031 RMK A01 T00091039  RH  070%=      5-min Rain = 0
KSW1 200405Z 06009KT 01/M04 A3031 RMK A01 T00091039  RH  070%=      5-min Rain = 0
KSW1 200406Z 06009KT 01/M04 A3031 RMK A01 T00101039  RH  070%=      5-min Rain = 0
KSW1 200407Z 06010KT 01/M04 A3031 RMK A01 T00111038  RH  070%=      5-min Rain = 0
KSW1 200408Z 06009KT 01/M04 A3031 RMK A01 T00121038  RH  070%=      5-min Rain = 0
KSW1 200409Z 06009KT 01/M04 A3031 RMK A01 T00131037  RH  069%=      5-min Rain = 0
KSW1 200410Z 05009KT 01/M04 A3031 RMK A01 T00131037  RH  069%=      5-min Rain = 0
KSW1 200411Z 05009KT 01/M04 A3031 RMK A01 T00141037  RH  069%=      5-min Rain = 0
KSW1 200412Z 05009KT 01/M04 A3031 RMK A01 T00141037  RH  069%=      5-min Rain = 0
KSW1 200413Z 05009KT 01/M04 A3031 RMK A01 T00141038  RH  069%=      5-min Rain = 0
KSW1 200414Z 05009KT 02/M04 A3031 RMK A01 T00151037  RH  068%=      5-min Rain = 0
KSW1 200415Z 05009KT 02/M04 A3031 RMK A01 T00151037  RH  068%=      5-min Rain = 0
KSW1 200416Z 05009KT 02/M04 A3031 RMK A01 T00151038  RH  068%=      5-min Rain = 0
KSW1 200417Z 06009KT 02/M04 A3031 RMK A01 T00161037  RH  068%=      5-min Rain = 0
KSW1 200418Z 06009KT 02/M04 A3031 RMK A01 T00161038  RH  068%=      5-min Rain = 0
KSW1 200419Z 06009KT 02/M04 A3031 RMK A01 T00161038  RH  067%=      5-min Rain = 0
KSW1 200420Z 06009KT 02/M04 A3031 RMK A01 T00161038  RH  067%=      5-min Rain = 0
KSW1 200421Z 06009KT 02/M04 A3031 RMK A01 T00161038  RH  067%=      5-min Rain = 0
KSW1 200422Z 06009KT 02/M04 A3031 RMK A01 T00161037  RH  068%=      5-min Rain = 0
KSW1 200423Z 06009KT 02/M04 A3031 RMK A01 T00161037  RH  068%=      5-min Rain = 0
KSW1 200424Z 06008KT 02/M04 A3031 RMK A01 T00151037  RH  068%=      5-min Rain = 0
KSW1 200425Z 06008KT 02/M04 A3031 RMK A01 T00161037  RH  068%=      5-min Rain = 0
KSW1 200426Z 06008KT 02/M04 A3031 RMK A01 T00161037  RH  068%=      5-min Rain = 0
KSW1 200427Z 07008KT 02/M04 A3031 RMK A01 T00161037  RH  068%=      5-min Rain = 0
KSW1 200428Z 07008KT 02/M04 A3031 RMK A01 T00161037  RH  068%=      5-min Rain = 0
KSW1 200429Z 07008KT 02/M04 A3031 RMK A01 T00161038  RH  068%=      5-min Rain = 0
KSW1 200430Z 07009KT 02/M04 A3031 RMK A01 T00161037  RH  068%=      5-min Rain = 0
KSW1 200431Z 07008KT 02/M04 A3031 RMK A01 T00161038  RH  068%=      5-min Rain = 0
KSW1 200432Z 07008KT 02/M04 A3031 RMK A01 T00161038  RH  068%=      5-min Rain = 0
KSW1 200433Z 06008KT 02/M04 A3031 RMK A01 T00151038  RH  068%=      5-min Rain = 0
KSW1 200434Z 06008KT 01/M04 A3031 RMK A01 T00141039  RH  068%=      5-min Rain = 0
KSW1 200435Z 06009KT 01/M04 A3031 RMK A01 T00141040  RH  067%=      5-min Rain = 0
KSW1 200436Z 06009KT 01/M04 A3031 RMK A01 T00141041  RH  067%=      5-min Rain = 0
KSW1 200437Z 06009KT 01/M04 A3031 RMK A01 T00131042  RH  067%=      5-min Rain = 0
KSW1 200438Z 06009KT 01/M04 A3032 RMK A01 T00131042  RH  067%=      5-min Rain = 0
KSW1 200439Z 06008KT 01/M04 A3032 RMK A01 T00121043  RH  067%=      5-min Rain = 0
KSW1 200440Z 06008KT 01/M04 A3032 RMK A01 T00111043  RH  067%=      5-min Rain = 0
KSW1 200441Z 06008KT 01/M04 A3032 RMK A01 T00101044  RH  067%=      5-min Rain = 0
KSW1 200442Z 06007KT 01/M04 A3032 RMK A01 T00101044  RH  067%=      5-min Rain = 0
KSW1 200443Z 06009KT 01/M05 A3032 RMK A01 T00101045  RH  066%=      5-min Rain = 0
KSW1 200444Z 06009KT 01/M05 A3032 RMK A01 T00101046  RH  066%=      5-min Rain = 0
KSW1 200445Z 06009KT 01/M05 A3032 RMK A01 T00101047  RH  066%=      5-min Rain = 0
KSW1 200446Z 06008KT 01/M05 A3032 RMK A01 T00101047  RH  065%=      5-min Rain = 0
KSW1 200447Z 06008KT 01/M05 A3032 RMK A01 T00101047  RH  066%=      5-min Rain = 0
KSW1 200448Z 06009KT 01/M05 A3032 RMK A01 T00101046  RH  066%=      5-min Rain = 0
KSW1 200449Z 06009KT 01/M05 A3032 RMK A01 T00101047  RH  066%=      5-min Rain = 0
KSW1 200450Z 07008KT 01/M05 A3031 RMK A01 T00101047  RH  066%=      5-min Rain = 0
KSW1 200451Z 07009KT 01/M05 A3031 RMK A01 T00091047  RH  066%=      5-min Rain = 0
KSW1 200452Z 07009KT 01/M05 A3031 RMK A01 T00101047  RH  066%=      5-min Rain = 0
KSW1 200453Z 07008KT 01/M05 A3031 RMK A01 T00091047  RH  066%=      5-min Rain = 0
KSW1 200454Z 07009KT 01/M05 A3031 RMK A01 T00091047  RH  066%=      5-min Rain = 0
KSW1 200455Z 07009KT 01/M05 A303 RMK A01 T00081048  RH  066%=      5-min Rain = 0
KSW1 200456Z 08009KT 01/M05 A303 RMK A01 T00081048  RH  066%=      5-min Rain = 0
KSW1 200457Z 07009KT 01/M05 A303 RMK A01 T00081048  RH  067%=      5-min Rain = 0
KSW1 200458Z 07009KT 01/M05 A3031 RMK A01 T00071048  RH  067%=      5-min Rain = 0
KSW1 200459Z 07009KT 01/M05 A3031 RMK A01 T00071048  RH  067%=      5-min Rain = 0
KSW1 200500Z 07010KT 01/M05 A303 RMK A01 T00061048  RH  067%=      5-min Rain = 0
KSW1 200501Z 07009KT 01/M05 A303 RMK A01 T00061048  RH  067%=      5-min Rain = 0
KSW1 200502Z 07009KT 01/M05 A303 RMK A01 T00061048  RH  067%=      5-min Rain = 0
KSW1 200503Z 07010KT 01/M05 A303 RMK A01 T00051049  RH  067%=      5-min Rain = 0
KSW1 200504Z 07009KT 00/M05 A303 RMK A01 T00041049  RH  068%=      5-min Rain = 0
KSW1 200505Z 07009KT 00/M05 A303 RMK A01 T00041049  RH  067%=      5-min Rain = 0
KSW1 200506Z 07009KT 00/M05 A303 RMK A01 T00041049  RH  067%=      5-min Rain = 0
KSW1 200507Z 07009KT 00/M05 A3031 RMK A01 T00041049  RH  067%=      5-min Rain = 0
KSW1 200508Z 07009KT 00/M05 A3031 RMK A01 T00041050  RH  067%=      5-min Rain = 0
KSW1 200509Z 07009KT 00/M05 A3031 RMK A01 T00041050  RH  067%=      5-min Rain = 0
KSW1 200510Z 07008KT 01/M05 A3031 RMK A01 T00051051  RH  066%=      5-min Rain = 0
KSW1 200511Z 07008KT 01/M05 A3031 RMK A01 T00051051  RH  066%=      5-min Rain = 0
KSW1 200512Z 07008KT 01/M05 A3031 RMK A01 T00051050  RH  066%=      5-min Rain = 0
KSW1 200513Z 07008KT 01/M05 A3031 RMK A01 T00051050  RH  066%=      5-min Rain = 0
KSW1 200514Z 07008KT 01/M05 A3031 RMK A01 T00051050  RH  066%=      5-min Rain = 0
KSW1 200515Z 07008KT 01/M05 A3031 RMK A01 T00051050  RH  067%=      5-min Rain = 0
KSW1 200516Z 07009KT 00/M05 A3031 RMK A01 T00041050  RH  067%=      5-min Rain = 0
KSW1 200517Z 07009KT 00/M05 A3031 RMK A01 T00041050  RH  067%=      5-min Rain = 0
KSW1 200518Z 07009KT 00/M05 A3031 RMK A01 T00041050  RH  067%=      5-min Rain = 0
KSW1 200519Z 07009KT 00/M05 A3031 RMK A01 T00041049  RH  067%=      5-min Rain = 0
KSW1 200520Z 07009KT 00/M05 A3031 RMK A01 T00041049  RH  067%=      5-min Rain = 0
KSW1 200521Z 07009KT 01/M05 A3031 RMK A01 T00051049  RH  068%=      5-min Rain = 0
KSW1 200522Z 07008KT 00/M05 A3031 RMK A01 T00041048  RH  068%=      5-min Rain = 0
KSW1 200523Z 07008KT 00/M05 A3031 RMK A01 T00041048  RH  068%=      5-min Rain = 0
KSW1 200524Z 08008KT 00/M05 A3031 RMK A01 T00031048  RH  068%=      5-min Rain = 0
KSW1 200525Z 08008KT 00/M05 A3031 RMK A01 T00021048  RH  069%=      5-min Rain = 0
KSW1 200526Z 07008KT 00/M05 A3031 RMK A01 T00011047  RH  070%=      5-min Rain = 0
KSW1 200527Z 07008KT 00/05 A3031 RMK A01 T00000-47  RH  070%=      5-min Rain = 0
KSW1 200528Z 07007KT 00/05 A3032 RMK A01 T00000-47  RH  071%=      5-min Rain = 0
KSW1 200529Z 07007KT 00/05 A3032 RMK A01 T00-00-47  RH  071%=      5-min Rain = 0
KSW1 200530Z 07007KT M00/M05 A3032 RMK A01 T10011047  RH  071%=      5-min Rain = 0
KSW1 200531Z 07008KT M00/M05 A3032 RMK A01 T10021047  RH  072%=      5-min Rain = 0
KSW1 200532Z 07008KT M00/M05 A3032 RMK A01 T10021047  RH  072%=      5-min Rain = 0
KSW1 200533Z 07008KT M00/M05 A3032 RMK A01 T10021047  RH  072%=      5-min Rain = 0
KSW1 200534Z 07008KT M00/M05 A3032 RMK A01 T10021047  RH  072%=      5-min Rain = 0
KSW1 200535Z 07008KT M00/M05 A3032 RMK A01 T10031047  RH  072%=      5-min Rain = 0
KSW1 200536Z 07008KT M00/M05 A3032 RMK A01 T10031047  RH  072%=      5-min Rain = 0
KSW1 200537Z 06008KT M00/M05 A3032 RMK A01 T10031047  RH  072%=      5-min Rain = 0
KSW1 200538Z 07009KT M00/M05 A3032 RMK A01 T10031047  RH  072%=      5-min Rain = 0
KSW1 200539Z 06009KT M00/M05 A3032 RMK A01 T10041047  RH  072%=      5-min Rain = 0
KSW1 200540Z 07009KT M00/M05 A3032 RMK A01 T10041047  RH  073%=      5-min Rain = 0
KSW1 200541Z 07009KT M00/M05 A3032 RMK A01 T10041048  RH  072%=      5-min Rain = 0
KSW1 200542Z 07009KT M00/M05 A3032 RMK A01 T10041048  RH  072%=      5-min Rain = 0
KSW1 200543Z 07009KT M00/M05 A3032 RMK A01 T10031048  RH  072%=      5-min Rain = 0
KSW1 200544Z 07009KT M00/M05 A3032 RMK A01 T10031048  RH  072%=      5-min Rain = 0
KSW1 200545Z 07008KT M00/M05 A3032 RMK A01 T10031048  RH  072%=      5-min Rain = 0
KSW1 200546Z 07008KT M00/M05 A3032 RMK A01 T10031048  RH  071%=      5-min Rain = 0
KSW1 200547Z 07008KT M00/M05 A3031 RMK A01 T10031048  RH  071%=      5-min Rain = 0
KSW1 200548Z 08008KT M00/M05 A3031 RMK A01 T10031048  RH  072%=      5-min Rain = 0
KSW1 200549Z 08007KT M00/M05 A3031 RMK A01 T10041048  RH  072%=      5-min Rain = 0
KSW1 200550Z 09007KT M00/M05 A303 RMK A01 T10041048  RH  072%=      5-min Rain = 0
KSW1 200551Z 09007KT M01/M05 A303 RMK A01 T10051048  RH  072%=      5-min Rain = 0
KSW1 200552Z 09006KT M01/M05 A3031 RMK A01 T10061048  RH  073%=      5-min Rain = 0
KSW1 200553Z 08005KT M01/M05 A3031 RMK A01 T10061048  RH  073%=      5-min Rain = 0
KSW1 200554Z 07005KT M01/M05 A3032 RMK A01 T10081048  RH  074%=      5-min Rain = 0
KSW1 200555Z 07005KT M01/M05 A3032 RMK A01 T10081048  RH  074%=      5-min Rain = 0
KSW1 200556Z 07005KT M01/M05 A3032 RMK A01 T10091048  RH  075%=      5-min Rain = 0
KSW1 200557Z 08005KT M01/M05 A3032 RMK A01 T10101049  RH  075%=      5-min Rain = 0
KSW1 200558Z 09004KT M01/M05 A3032 RMK A01 T10101049  RH  075%=      5-min Rain = 0
KSW1 200559Z 10003KT M01/M05 A3032 RMK A01 T10111049  RH  075%=      5-min Rain = 0

Page generated in 0.1146 seconds.